Data Archive--May, 2003

Date Time Heat Index Current Temp Wind Chill High Temp Low Temp Humidity Dew Point Wind Speed Gust Wind Direction Rain
Barometer
05/01/2003 12:00 a 50.3 50.3 50.3 50.6 50.0 72 41.6 0.0 0.0 --- 0.00 29.999
05/01/2003 12:30 a 50.9 50.9 50.9 51.2 50.6 72 42.2 0.0 0.0 --- 0.00 29.997
05/01/2003 1:00 a 50.8 50.8 50.8 51.2 50.1 73 42.5 0.0 0.0 --- 0.00 29.985
05/01/2003 1:30 a 50.2 50.2 50.2 50.5 50.0 75 42.6 0.0 0.0 --- 0.00 29.978
05/01/2003 2:00 a 51.0 51.0 51.0 51.4 50.6 77 44.1 0.0 0.0 --- 0.00 29.969
05/01/2003 2:30 a 51.8 51.8 51.8 52.2 51.3 76 44.5 0.0 1.0 --- 0.00 29.954
05/01/2003 3:00 a 51.9 51.9 51.9 52.4 50.9 89 48.8 0.0 1.0 NE 0.00 29.950
05/01/2003 3:30 a 50.8 50.8 50.8 50.9 50.7 92 48.6 0.0 2.0 NNE 0.00 29.937
05/01/2003 4:00 a 50.9 50.9 50.9 51.0 50.9 92 48.7 0.0 0.0 --- 0.00 29.931
05/01/2003 4:30 a 50.9 50.9 50.9 51.0 50.8 92 48.7 0.0 0.0 --- 0.00 29.945
05/01/2003 5:00 a 51.0 51.0 51.0 51.1 50.8 94 49.3 0.0 2.0 NNE 0.00 29.942
05/01/2003 5:30 a 50.9 50.9 50.9 50.9 50.8 94 49.2 0.0 2.0 NNE 0.01 29.948
05/01/2003 6:00 a 51.0 51.0 51.0 51.2 50.8 95 49.6 0.0 1.0 NNE 0.00 29.950
05/01/2003 6:30 a 51.5 51.5 51.5 51.8 51.2 95 50.1 0.0 0.0 --- 0.00 29.952
05/01/2003 7:00 a 52.0 52.0 52.0 52.2 51.8 95 50.6 0.0 1.0 NNE 0.00 29.956
05/01/2003 7:30 a 52.3 52.3 52.3 52.7 52.1 95 50.9 0.0 1.0 NNE 0.00 29.949
05/01/2003 8:00 a 53.5 53.5 53.5 53.7 52.8 95 52.1 0.0 1.0 NNE 0.00 29.951
05/01/2003 8:30 a 53.2 53.2 53.2 53.5 53.0 95 51.8 0.0 1.0 --- 0.00 29.937
05/01/2003 9:00 a 53.5 53.5 53.5 53.7 53.5 94 51.8 0.0 1.0 --- 0.00 29.935
05/01/2003 9:30 a 54.1 54.1 54.1 54.6 53.6 94 52.4 0.0 1.0 NNE 0.00 29.927
05/01/2003 10:00 a 55.4 55.4 55.4 56.4 54.6 93 53.4 0.0 1.0 NNE 0.00 29.930
05/01/2003 10:30 a 58.1 58.1 58.1 60.9 56.3 89 54.9 0.0 3.0 N 0.00 29.905
05/01/2003 11:00 a 61.5 61.5 61.5 62.2 60.9 89 58.2 0.0 3.0 N 0.00 29.894
05/01/2003 11:30 a 64.0 64.0 64.0 67.5 62.2 86 59.7 0.0 3.0 N 0.00 29.871
05/01/2003 12:00 p 72.8 71.9 71.9 75.0 67.6 74 63.2 1.0 5.0 N 0.00 29.851
05/01/2003 12:30 p 77.2 77.3 77.3 79.6 75.0 61 62.8 1.0 3.0 N 0.00 29.835
05/01/2003 1:00 p 81.8 81.0 81.0 81.7 79.6 54 62.8 0.0 4.0 NNW 0.00 29.822
05/01/2003 1:30 p 84.0 83.4 83.4 84.2 81.7 45 59.9 0.0 5.0 N 0.00 29.815
05/01/2003 2:00 p 85.8 84.3 84.3 85.6 80.9 49 63.1 0.0 3.0 N 0.00 29.799
05/01/2003 2:30 p 81.0 80.5 80.5 80.8 80.2 50 60.2 0.0 3.0 NNE 0.00 29.774
05/01/2003 3:00 p 81.0 80.7 80.7 81.0 80.5 49 59.8 0.0 3.0 N 0.00 29.756
05/01/2003 3:30 p 80.0 80.2 80.2 81.4 78.6 49 59.3 1.0 4.0 N 0.00 29.753
05/01/2003 4:00 p 79.0 78.6 78.6 79.9 77.6 49 57.9 0.0 3.0 NNE 0.00 29.735
05/01/2003 4:30 p 80.0 80.1 80.1 80.2 79.9 48 58.7 0.0 3.0 NNE 0.00 29.737
05/01/2003 5:00 p 79.4 79.3 79.3 80.0 78.6 52 60.2 0.0 3.0 SSE 0.00 29.736
05/01/2003 5:30 p 78.6 77.9 77.9 78.6 77.1 56 61.0 0.0 3.0 NE 0.00 29.732
05/01/2003 6:00 p 77.0 76.6 76.6 77.2 76.1 60 61.7 0.0 2.0 SSE 0.00 29.729
05/01/2003 6:30 p 75.4 75.4 75.4 76.1 74.7 62 61.5 0.0 3.0 SSE 0.00 29.734
05/01/2003 7:00 p 74.6 74.0 74.0 74.6 73.7 63 60.6 0.0 3.0 SSE 0.00 29.740
05/01/2003 7:30 p 74.6 73.6 73.6 73.8 73.0 63 60.2 0.0 2.0 SSE 0.00 29.741
05/01/2003 8:00 p 72.0 72.3 72.3 73.0 72.0 62 58.6 0.0 1.0 --- 0.00 29.738
05/01/2003 8:30 p 71.0 71.4 71.4 72.0 70.9 63 58.2 0.0 1.0 ENE 0.00 29.746
05/01/2003 9:00 p 71.0 70.6 70.6 71.0 70.3 65 58.3 0.0 1.0 --- 0.00 29.753
05/01/2003 9:30 p 70.0 70.3 70.3 70.4 70.1 68 59.3 0.0 2.0 SSE 0.00 29.755
05/01/2003 10:00 p 70.0 69.8 69.8 70.1 69.3 70 59.6 0.0 1.0 N 0.00 29.748
05/01/2003 10:30 p 70.0 68.6 68.6 69.3 67.8 75 60.4 0.0 1.0 NNE 0.00 29.753
05/01/2003 11:00 p 67.4 67.4 67.4 67.8 66.9 77 59.9 0.0 3.0 NNE 0.00 29.754
05/01/2003 11:30 p 66.4 66.4 66.4 66.9 66.0 77 59.0 0.0 2.0 E 0.00 29.748
05/02/2003 12:00 a 65.6 65.6 65.6 66.0 65.2 78 58.6 0.0 2.0 E 0.00 29.746
05/02/2003 12:30 a 64.6 64.6 64.6 65.2 63.9 80 58.3 0.0 0.0 --- 0.00 29.740
05/02/2003 1:00 a 63.6 63.6 63.6 63.9 63.4 80 57.3 0.0 0.0 --- 0.00 29.731
05/02/2003 1:30 a 63.1 63.1 63.1 63.5 62.6 81 57.2 0.0 0.0 --- 0.00 29.733
05/02/2003 2:00 a 62.1 62.1 62.1 62.6 61.5 82 56.5 0.0 0.0 --- 0.00 29.727
05/02/2003 2:30 a 61.1 61.1 61.1 61.5 60.7 84 56.2 0.0 0.0 --- 0.00 29.720
05/02/2003 3:00 a 60.2 60.2 60.2 60.7 59.7 86 56.0 0.0 0.0 --- 0.00 29.714
05/02/2003 3:30 a 59.8 59.8 59.8 59.9 59.6 86 55.6 0.0 0.0 --- 0.00 29.705
05/02/2003 4:00 a 59.4 59.4 59.4 59.8 58.9 88 55.9 0.0 0.0 --- 0.00 29.693
05/02/2003 4:30 a 58.6 58.6 58.6 59.0 58.2 90 55.7 0.0 0.0 --- 0.00 29.688
05/02/2003 5:00 a 57.9 57.9 57.9 58.3 57.5 92 55.6 0.0 0.0 --- 0.00 29.683
05/02/2003 5:30 a 57.5 57.5 57.5 57.7 57.4 91 54.9 0.0 0.0 --- 0.00 29.684
05/02/2003 6:00 a 58.3 58.3 58.3 59.8 57.6 91 55.7 0.0 0.0 --- 0.00 29.694
05/02/2003 6:30 a 63.5 63.5 63.5 65.4 59.8 82 57.9 0.0 1.0 --- 0.00 29.692
05/02/2003 7:00 a 64.4 64.4 64.4 65.6 63.7 79 57.8 0.0 1.0 SSE 0.00 29.688
05/02/2003 7:30 a 66.7 66.7 66.7 67.3 65.6 75 58.5 0.0 2.0 SSE 0.00 29.691
05/02/2003 8:00 a 69.4 68.5 68.5 70.2 67.2 72 59.1 0.0 1.0 --- 0.00 29.686
05/02/2003 8:30 a 73.1 73.3 73.3 75.6 70.2 61 59.1 0.0 3.0 N 0.00 29.674
05/02/2003 9:00 a 74.6 73.6 73.6 75.4 72.7 63 60.2 0.0 2.0 N 0.00 29.669
05/02/2003 9:30 a 76.0 76.1 76.1 80.6 73.9 51 56.7 0.0 3.0 N 0.00 29.649
05/02/2003 10:00 a 79.0 78.4 78.4 81.2 75.6 60 63.4 1.0 4.0 N 0.00 29.645
05/02/2003 10:30 a 76.0 76.3 76.3 77.3 75.6 56 59.5 1.0 4.0 N 0.00 29.640
05/02/2003 11:00 a 80.0 78.5 78.5 79.4 77.3 55 61.0 0.0 3.0 SSE 0.00 29.626
05/02/2003 11:30 a 80.2 79.5 79.5 80.6 78.8 51 59.8 0.0 2.0 NNE 0.00 29.613
05/02/2003 12:00 p 87.0 87.6 87.6 91.3 80.7 35 56.6 0.0 3.0 N 0.00 29.601
05/02/2003 12:30 p 89.4 88.8 88.8 91.7 86.3 38 59.9 0.0 4.0 N 0.00 29.574
05/02/2003 1:00 p 85.8 86.4 86.4 89.7 85.0 39 58.5 0.0 3.0 NNE 0.00 29.561
05/02/2003 1:30 p 83.8 84.3 84.3 85.7 83.7 39 56.7 0.0 2.0 NNE 0.00 29.542
05/02/2003 2:00 p 85.0 85.2 85.2 86.6 83.4 40 58.2 0.0 2.0 NNE 0.00 29.531
05/02/2003 2:30 p 82.4 81.5 81.5 83.4 79.7 44 57.5 0.0 3.0 N 0.00 29.519
05/02/2003 3:00 p 79.2 79.1 79.1 79.7 78.2 51 59.4 0.0 3.0 N 0.00 29.506
05/02/2003 3:30 p 78.5 77.6 77.6 78.8 76.0 55 60.2 1.0 4.0 N 0.00 29.497
05/02/2003 4:00 p 76.0 72.7 72.7 76.0 66.5 95 71.2 1.0 5.0 N 0.17 29.535
05/02/2003 4:30 p 66.8 66.8 66.8 67.3 66.2 96 65.6 0.0 2.0 ESE 0.04 29.525
05/02/2003 5:00 p 67.0 67.0 67.0 67.2 66.6 96 65.8 0.0 2.0 E 0.00 29.507
05/02/2003 5:30 p 65.7 65.7 65.7 66.6 64.6 96 64.5 0.0 4.0 S 0.26 29.542
05/02/2003 6:00 p 64.3 64.3 64.3 64.6 64.1 96 63.1 0.0 1.0 S 0.00 29.560
05/02/2003 6:30 p 63.6 63.6 63.6 64.1 62.5 97 62.7 0.0 4.0 SE 0.01 29.572
05/02/2003 7:00 p 62.1 62.1 62.1 62.6 61.9 97 61.2 0.0 1.0 SE 0.00 29.593
05/02/2003 7:30 p 61.5 61.5 61.5 62.2 59.9 97 60.6 1.0 3.0 SSE 0.00 29.625
05/02/2003 8:00 p 57.8 57.8 57.8 59.9 56.1 97 57.0 1.0 5.0 SSW 0.00 29.656
05/02/2003 8:30 p 55.4 55.4 55.4 56.1 55.1 97 54.6 0.0 5.0 SSE 0.00 29.659
05/02/2003 9:00 p 55.0 55.0 55.0 55.2 54.8 97 54.2 0.0 4.0 SSE 0.00 29.653
05/02/2003 9:30 p 54.9 54.9 54.9 55.0 54.7 97 54.1 0.0 3.0 SSE 0.00 29.651
05/02/2003 10:00 p 54.7 54.7 54.7 54.9 54.7 97 53.9 0.0 2.0 SSE 0.00 29.652
05/02/2003 10:30 p 55.2 55.2 55.2 55.3 54.9 96 54.1 0.0 5.0 SSE 0.00 29.658
05/02/2003 11:00 p 54.7 54.7 54.7 55.2 54.2 96 53.6 0.0 2.0 SSE 0.00 29.682
05/02/2003 11:30 p 53.3 53.3 53.3 54.2 52.4 95 51.9 0.0 5.0 SSE 0.00 29.694
05/03/2003 12:00 a 51.8 51.8 51.8 52.4 51.3 95 50.4 0.0 5.0 NW 0.01 29.704
05/03/2003 12:30 a 51.4 51.4 51.4 51.9 51.1 94 49.7 0.0 5.0 SSE 0.00 29.703
05/03/2003 1:00 a 52.2 52.2 52.2 52.4 51.9 93 50.2 0.0 5.0 SSE 0.00 29.704
05/03/2003 1:30 a 52.4 52.4 52.4 52.5 52.3 92 50.1 1.0 7.0 SSE 0.00 29.707
05/03/2003 2:00 a 52.2 52.2 52.2 52.4 52.1 92 50.0 0.0 6.0 SE 0.00 29.726
05/03/2003 2:30 a 52.1 52.1 52.1 52.2 51.9 91 49.6 1.0 4.0 SSE 0.00 29.737
05/03/2003 3:00 a 51.9 51.9 51.9 51.9 51.8 91 49.4 0.0 2.0 SSE 0.00 29.748
05/03/2003 3:30 a 51.6 51.6 51.6 51.8 51.4 90 48.8 0.0 5.0 SSE 0.00 29.750
05/03/2003 4:00 a 51.3 51.3 51.3 51.4 51.2 89 48.2 0.0 4.0 SSE 0.00 29.763
05/03/2003 4:30 a 50.6 50.6 50.6 51.2 50.0 88 47.2 0.0 6.0 SSE 0.00 29.783
05/03/2003 5:00 a 50.3 50.3 50.3 50.5 50.0 86 46.3 0.0 4.0 SSE 0.00 29.809
05/03/2003 5:30 a 50.5 50.5 50.5 50.7 50.4 83 45.5 0.0 5.0 SSE 0.00 29.809
05/03/2003 6:00 a 50.9 50.9 50.9 51.0 50.7 83 45.9 0.0 2.0 SW 0.00 29.831
05/03/2003 6:30 a 51.2 51.2 51.2 51.4 51.0 75 43.6 0.0 4.0 SE 0.00 29.848
05/03/2003 7:00 a 51.9 51.9 51.9 52.3 51.4 72 43.2 0.0 5.0 SSE 0.00 29.853
05/03/2003 7:30 a 53.3 53.3 53.3 54.2 52.3 68 43.0 0.0 3.0 SSW 0.00 29.870
05/03/2003 8:00 a 55.4 55.4 55.4 56.2 54.2 63 43.0 0.0 5.0 SW 0.00 29.885
05/03/2003 8:30 a 55.4 55.4 55.4 55.6 55.1 65 43.8 0.0 5.0 SSE 0.00 29.887
05/03/2003 9:00 a 56.6 56.6 56.6 58.0 55.2 60 42.9 0.0 4.0 SSE 0.00 29.893
05/03/2003 9:30 a 59.6 59.6 59.6 64.4 57.5 50 41.0 1.0 5.0 SSE 0.00 29.892
05/03/2003 10:00 a 61.9 61.9 61.9 64.9 59.2 55 45.6 0.0 5.0 SSE 0.00 29.887
05/03/2003 10:30 a 59.9 59.9 59.9 60.6 59.3 53 42.7 1.0 5.0 SSE 0.00 29.889
05/03/2003 11:00 a 61.4 61.4 61.4 62.4 60.6 53 44.1 1.0 7.0 SSE 0.00 29.883
05/03/2003 11:30 a 63.9 63.9 63.9 66.1 62.3 42 40.4 0.0 3.0 NNE 0.00 29.880
05/03/2003 12:00 p 67.2 70.5 70.5 72.3 66.1 31 38.4 0.0 4.0 SSE 0.00 29.886
05/03/2003 12:30 p 69.3 71.9 71.9 72.7 71.0 33 41.3 0.0 4.0 N 0.00 29.886
05/03/2003 1:00 p 68.7 72.1 72.1 73.1 70.6 27 36.3 0.0 5.0 SSE 0.00 29.880
05/03/2003 1:30 p 68.1 72.1 72.1 73.3 71.2 21 30.0 1.0 7.0 SSE 0.00 29.885
05/03/2003 2:00 p 67.9 72.0 72.0 73.0 69.9 19 27.5 1.0 6.0 SSE 0.00 29.888
05/03/2003 2:30 p 64.9 68.5 68.5 69.9 67.5 19 24.6 0.0 3.0 NNW 0.00 29.877
05/03/2003 3:00 p 67.5 67.5 67.5 68.0 66.9 19 23.8 0.0 3.0 WNW 0.00 29.870
05/03/2003 3:30 p 67.2 67.2 67.2 67.6 66.8 19 23.6 1.0 6.0 SSE 0.00 29.869
05/03/2003 4:00 p 67.2 67.2 67.2 67.6 66.8 19 23.6 0.0 6.0 SSE 0.00 29.877
05/03/2003 4:30 p 66.9 66.9 66.9 67.5 66.2 19 23.3 1.0 7.0 SSE 0.00 29.883
05/03/2003 5:00 p 65.2 65.2 65.2 66.2 64.2 22 25.4 0.0 3.0 SSE 0.00 29.881
05/03/2003 5:30 p 63.6 63.6 63.6 64.2 63.1 21 23.0 0.0 1.0 N 0.00 29.888
05/03/2003 6:00 p 62.4 62.4 62.4 63.1 61.7 20 20.8 0.0 2.0 N 0.00 29.894
05/03/2003 6:30 p 60.3 60.3 60.3 61.7 59.2 33 31.1 0.0 1.0 N 0.00 29.897
05/03/2003 7:00 p 58.0 58.0 58.0 59.2 56.6 36 31.2 0.0 2.0 NNE 0.00 29.916
05/03/2003 7:30 p 54.9 54.9 54.9 56.5 53.8 47 35.1 0.0 0.0 --- 0.00 29.925
05/03/2003 8:00 p 52.9 52.9 52.9 53.8 52.1 56 37.6 0.0 0.0 --- 0.00 29.934
05/03/2003 8:30 p 51.3 51.3 51.3 52.1 50.1 62 38.7 0.0 0.0 --- 0.00 29.949
05/03/2003 9:00 p 49.2 49.2 49.2 50.1 48.8 67 38.7 0.0 0.0 --- 0.00 29.956
05/03/2003 9:30 p 48.2 48.2 48.2 48.8 47.4 71 39.3 0.0 0.0 --- 0.00 29.967
05/03/2003 10:00 p 46.8 46.8 46.8 47.4 46.4 73 38.6 0.0 0.0 --- 0.00 29.974
05/03/2003 10:30 p 46.6 46.6 46.6 46.8 46.4 76 39.5 0.0 0.0 --- 0.00 29.982
05/03/2003 11:00 p 46.9 46.9 46.9 47.0 46.6 80 41.1 0.0 0.0 --- 0.00 29.983
05/03/2003 11:30 p 46.2 46.2 46.2 46.7 45.8 83 41.3 0.0 0.0 --- 0.00 29.987
05/04/2003 12:00 a 45.5 45.5 45.5 45.8 45.1 84 41.0 0.0 0.0 --- 0.00 29.984
05/04/2003 12:30 a 44.6 44.6 44.6 45.1 44.2 86 40.7 0.0 0.0 --- 0.00 29.987
05/04/2003 1:00 a 43.8 43.8 43.8 44.2 43.6 88 40.5 0.0 0.0 --- 0.00 29.988
05/04/2003 1:30 a 43.1 43.1 43.1 43.6 42.6 89 40.1 0.0 0.0 --- 0.00 29.995
05/04/2003 2:00 a 42.4 42.4 42.4 42.6 42.3 90 39.7 0.0 0.0 --- 0.00 29.996
05/04/2003 2:30 a 42.2 42.2 42.2 42.6 41.9 89 39.2 0.0 0.0 --- 0.00 30.005
05/04/2003 3:00 a 41.5 41.5 41.5 41.9 41.3 90 38.8 0.0 0.0 --- 0.00 30.012
05/04/2003 3:30 a 41.2 41.2 41.2 41.3 41.0 91 38.8 0.0 0.0 --- 0.00 30.022
05/04/2003 4:00 a 40.8 40.8 40.8 41.1 40.6 91 38.4 0.0 0.0 --- 0.00 30.029
05/04/2003 4:30 a 40.7 40.7 40.7 40.8 40.6 91 38.3 0.0 0.0 --- 0.00 30.032
05/04/2003 5:00 a 41.1 41.1 41.1 41.3 40.8 91 38.7 0.0 0.0 --- 0.00 30.041
05/04/2003 5:30 a 41.6 41.6 41.6 42.2 41.3 92 39.5 0.0 0.0 --- 0.00 30.051
05/04/2003 6:00 a 42.9 42.9 42.9 43.8 42.2 91 40.5 0.0 0.0 --- 0.00 30.053
05/04/2003 6:30 a 44.9 44.9 44.9 45.9 43.8 89 41.9 0.0 0.0 --- 0.00 30.055
05/04/2003 7:00 a 46.6 46.6 46.6 47.3 45.9 87 42.9 0.0 0.0 --- 0.00 30.056
05/04/2003 7:30 a 47.8 47.8 47.8 48.2 47.2 80 41.9 0.0 0.0 --- 0.00 30.059
05/04/2003 8:00 a 48.5 48.5 48.5 48.9 48.2 78 42.0 0.0 0.0 --- 0.00 30.067
05/04/2003 8:30 a 49.5 49.5 49.5 50.3 48.9 74 41.6 0.0 0.0 --- 0.00 30.069
05/04/2003 9:00 a 50.7 50.7 50.7 51.0 50.3 72 42.0 0.0 0.0 --- 0.00 30.076
05/04/2003 9:30 a 51.6 51.6 51.6 52.5 51.0 66 40.6 0.0 0.0 --- 0.00 30.079
05/04/2003 10:00 a 53.3 53.3 53.3 54.1 52.5 60 39.8 0.0 2.0 NNE 0.00 30.078
05/04/2003 10:30 a 55.0 55.0 55.0 56.6 54.1 55 39.1 0.0 3.0 SE 0.00 30.078
05/04/2003 11:00 a 58.4 58.4 58.4 60.2 56.7 38 32.9 0.0 4.0 SE 0.00 30.078
05/04/2003 11:30 a 61.7 61.7 61.7 64.1 60.1 35 33.8 1.0 4.0 SSE 0.00 30.072
05/04/2003 12:00 p 63.7 68.3 68.3 71.8 62.5 27 33.1 0.0 3.0 N 0.00 30.060
05/04/2003 12:30 p 67.0 71.1 71.1 73.9 68.8 27 35.5 0.0 3.0 SSE 0.00 30.049
05/04/2003 1:00 p 69.0 72.0 72.0 73.9 70.2 30 38.9 1.0 4.0 SSE 0.00 30.040
05/04/2003 1:30 p 68.7 72.1 72.1 75.2 70.0 27 36.3 0.0 3.0 SSE 0.00 30.026
05/04/2003 2:00 p 65.4 69.4 69.4 74.1 67.6 32 38.3 0.0 3.0 NNW 0.00 30.018
05/04/2003 2:30 p 67.8 67.8 67.8 68.6 66.7 33 37.7 0.0 4.0 SSE 0.00 30.003
05/04/2003 3:00 p 65.3 65.3 65.3 66.7 64.1 33 35.5 1.0 4.0 N 0.00 29.987
05/04/2003 3:30 p 64.0 64.0 64.0 64.2 63.7 33 34.3 1.0 4.0 NNE 0.00 29.980
05/04/2003 4:00 p 63.3 63.3 63.3 63.9 62.8 33 33.7 1.0 4.0 N 0.00 29.984
05/04/2003 4:30 p 62.2 62.2 62.2 62.8 61.6 34 33.5 1.0 4.0 N 0.00 29.998
05/04/2003 5:00 p 61.0 61.0 61.0 61.6 60.7 34 32.5 0.0 3.0 N 0.00 30.018
05/04/2003 5:30 p 60.0 60.0 60.0 60.7 59.4 34 31.6 0.0 2.0 N 0.00 30.020
05/04/2003 6:00 p 58.7 58.7 58.7 59.4 58.0 38 33.2 0.0 2.0 N 0.00 30.023
05/04/2003 6:30 p 57.0 57.0 57.0 58.0 56.2 40 32.9 0.0 1.0 N 0.00 30.022
05/04/2003 7:00 p 55.6 55.6 55.6 56.3 54.5 44 34.1 0.0 1.0 N 0.00 30.020
05/04/2003 7:30 p 52.7 52.7 52.7 54.5 51.2 53 36.1 0.0 0.0 --- 0.00 30.027
05/04/2003 8:00 p 50.4 50.4 50.4 51.2 50.1 58 36.2 0.0 0.0 --- 0.00 30.038
05/04/2003 8:30 p 48.9 48.9 48.9 50.1 47.7 64 37.3 0.0 0.0 --- 0.00 30.040
05/04/2003 9:00 p 46.8 46.8 46.8 47.7 45.9 68 36.8 0.0 0.0 --- 0.00 30.047
05/04/2003 9:30 p 45.3 45.3 45.3 45.9 44.6 74 37.5 0.0 0.0 --- 0.00 30.039
05/04/2003 10:00 p 43.8 43.8 43.8 44.6 43.4 78 37.4 0.0 0.0 --- 0.00 30.029
05/04/2003 10:30 p 42.8 42.8 42.8 43.4 42.1 81 37.4 0.0 0.0 --- 0.00 30.024
05/04/2003 11:00 p 41.9 41.9 41.9 42.1 41.7 83 37.1 0.0 0.0 --- 0.00 30.013
05/04/2003 11:30 p 41.6 41.6 41.6 41.8 41.3 84 37.1 0.0 0.0 --- 0.00 30.015
05/05/2003 12:00 a 40.6 40.6 40.6 41.2 40.1 85 36.5 0.0 0.0 --- 0.00 30.001
05/05/2003 12:30 a 39.4 39.4 39.4 40.1 39.1 86 35.6 0.0 0.0 --- 0.00 29.989
05/05/2003 1:00 a 39.0 39.0 39.0 39.1 38.9 87 35.5 0.0 0.0 --- 0.00 29.989
05/05/2003 1:30 a 38.5 38.5 38.5 38.9 38.2 88 35.3 0.0 0.0 --- 0.00 29.993
05/05/2003 2:00 a 37.8 37.8 37.8 38.1 37.5 89 34.9 0.0 0.0 --- 0.00 29.986
05/05/2003 2:30 a 37.5 37.5 37.5 37.5 37.4 89 34.6 0.0 0.0 --- 0.00 29.982
05/05/2003 3:00 a 37.0 37.0 37.0 37.5 36.6 89 34.1 0.0 0.0 --- 0.00 29.997
05/05/2003 3:30 a 36.3 36.3 36.3 36.6 36.1 90 33.7 0.0 0.0 --- 0.00 30.019
05/05/2003 4:00 a 36.0 36.0 36.0 36.2 35.9 90 33.4 0.0 0.0 --- 0.00 30.025
05/05/2003 4:30 a 35.7 35.7 35.7 36.0 35.6 91 33.3 0.0 0.0 --- 0.00 30.024
05/05/2003 5:00 a 36.0 36.0 36.0 36.2 35.7 91 33.6 0.0 0.0 --- 0.00 30.041
05/05/2003 5:30 a 36.7 36.7 36.7 37.3 36.2 91 34.3 0.0 0.0 --- 0.00 30.057
05/05/2003 6:00 a 38.5 38.5 38.5 39.8 37.3 91 36.1 0.0 0.0 --- 0.00 30.047
05/05/2003 6:30 a 43.5 43.5 43.5 46.7 39.8 79 37.4 0.0 0.0 --- 0.00 30.046
05/05/2003 7:00 a 46.1 46.1 46.1 47.1 45.7 74 38.3 0.0 0.0 --- 0.00 30.024
05/05/2003 7:30 a 48.8 48.8 48.8 50.3 47.1 66 38.0 0.0 0.0 --- 0.00 30.033
05/05/2003 8:00 a 51.9 51.9 51.9 53.4 50.3 58 37.6 0.0 0.0 --- 0.00 30.032
05/05/2003 8:30 a 54.4 54.4 54.4 55.6 53.4 51 36.7 0.0 0.0 --- 0.00 30.037
05/05/2003 9:00 a 56.2 56.2 56.2 56.6 55.6 46 35.7 0.0 0.0 --- 0.00 30.037
05/05/2003 9:30 a 57.4 57.4 57.4 58.0 56.6 43 35.1 0.0 0.0 --- 0.00 30.038
05/05/2003 10:00 a 58.6 58.6 58.6 59.4 58.0 39 33.7 0.0 0.0 --- 0.00 30.045
05/05/2003 10:30 a 59.6 59.6 59.6 59.8 59.3 37 33.3 0.0 2.0 N 0.00 30.041
05/05/2003 11:00 a 59.2 59.2 59.2 60.1 58.4 38 33.6 0.0 2.0 N 0.00 30.045
05/05/2003 11:30 a 58.6 58.6 58.6 59.3 58.2 35 31.1 0.0 1.0 N 0.00 30.045
05/05/2003 12:00 p 59.2 59.2 59.2 59.4 59.0 36 32.3 0.0 0.0 --- 0.00 30.019
05/05/2003 12:30 p 59.2 59.2 59.2 59.5 59.0 38 33.6 0.0 2.0 N 0.00 30.003
05/05/2003 1:00 p 59.2 59.2 59.2 59.5 58.7 36 32.3 0.0 3.0 N 0.00 29.993
05/05/2003 1:30 p 58.8 58.8 58.8 58.9 58.7 38 33.3 1.0 3.0 N 0.00 29.988
05/05/2003 2:00 p 58.7 58.7 58.7 58.9 58.6 40 34.5 1.0 3.0 N 0.00 29.985
05/05/2003 2:30 p 58.8 58.8 58.8 59.0 58.6 39 33.9 1.0 5.0 N 0.00 29.977
05/05/2003 3:00 p 58.1 58.1 58.1 58.8 57.7 37 32.0 1.0 4.0 N 0.00 29.968
05/05/2003 3:30 p 56.8 56.8 56.8 57.8 56.5 38 31.5 1.0 4.0 N 0.00 29.956
05/05/2003 4:00 p 55.8 55.8 55.8 56.5 55.4 36 29.3 1.0 4.0 N 0.00 29.982
05/05/2003 4:30 p 54.7 54.7 54.7 55.4 54.4 36 28.3 1.0 4.0 N 0.00 29.984
05/05/2003 5:00 p 54.8 54.8 54.8 55.0 54.3 27 21.5 1.0 4.0 N 0.00 29.979
05/05/2003 5:30 p 53.8 53.8 53.8 54.3 53.2 33 25.4 1.0 4.0 N 0.00 29.972
05/05/2003 6:00 p 52.1 52.1 52.1 53.2 51.2 39 27.9 1.0 4.0 N 0.00 29.953
05/05/2003 6:30 p 50.6 50.6 50.6 51.2 50.3 42 28.4 0.0 3.0 NNE 0.00 29.948
05/05/2003 7:00 p 50.4 50.4 50.4 50.7 48.7 63 38.3 0.0 4.0 N 0.00 29.982
05/05/2003 7:30 p 45.1 45.1 45.1 48.7 43.0 92 42.9 0.0 1.0 --- 0.01 30.000
05/05/2003 8:00 p 42.7 42.7 42.7 43.0 42.5 94 41.1 0.0 0.0 --- 0.01 29.972
05/07/2003 2:30 p 87.4 88.0 88.0 88.3 87.6 37 58.5 0.0 1.0 W 0.00 29.728
05/07/2003 3:00 p 86.8 86.0 86.0 87.6 82.9 44 61.6 0.0 3.0 N 0.00 29.709
05/07/2003 3:30 p 82.6 81.6 81.6 82.8 80.3 46 58.8 0.0 3.0 N 0.00 29.697
05/07/2003 4:00 p 80.0 80.2 80.2 80.5 79.8 46 57.6 0.0 4.0 N 0.00 29.684
05/07/2003 4:30 p 80.0 80.3 80.3 80.7 79.5 46 57.7 0.0 3.0 NNW 0.00 29.682
05/07/2003 5:00 p 79.0 79.1 79.1 79.6 78.8 46 56.6 0.0 3.0 N 0.00 29.673
05/07/2003 5:30 p 77.7 78.1 78.1 78.8 77.7 47 56.3 0.0 2.0 NNW 0.00 29.677
05/07/2003 6:00 p 76.4 77.3 77.3 77.8 76.7 47 55.5 0.0 3.0 N 0.00 29.681
05/07/2003 6:30 p 75.0 75.3 75.3 76.7 74.0 50 55.4 0.0 0.0 --- 0.00 29.670
05/07/2003 7:00 p 74.0 73.5 73.5 74.0 72.9 52 54.8 0.0 0.0 --- 0.00 29.667
05/07/2003 7:30 p 73.0 72.6 72.6 73.0 71.8 57 56.5 0.0 0.0 --- 0.00 29.671
05/07/2003 8:00 p 71.0 70.7 70.7 71.8 69.9 61 56.6 0.0 1.0 --- 0.00 29.679
05/07/2003 8:30 p 69.0 69.3 69.3 69.9 68.9 66 57.5 0.0 1.0 --- 0.00 29.684
05/07/2003 9:00 p 69.0 68.5 68.5 69.0 67.9 68 57.5 0.0 0.0 --- 0.00 29.682
05/07/2003 9:30 p 67.2 67.2 67.2 67.9 66.6 72 57.9 0.0 0.0 --- 0.00 29.693
05/07/2003 10:00 p 66.4 66.4 66.4 66.7 66.0 75 58.2 0.0 2.0 N 0.00 29.708
05/07/2003 10:30 p 67.9 67.9 67.9 68.8 66.2 63 54.9 1.0 6.0 SW 0.00 29.714
05/07/2003 11:00 p 65.7 65.7 65.7 68.5 64.7 82 60.1 1.0 5.0 S 0.00 29.701
05/07/2003 11:30 p 63.6 63.6 63.6 64.7 63.0 89 60.3 0.0 1.0 --- 0.00 29.714
05/08/2003 12:00 a 61.6 61.6 61.6 63.0 61.0 96 60.5 0.0 2.0 ESE 0.10 29.722
05/08/2003 12:30 a 60.7 60.7 60.7 61.0 60.6 96 59.6 0.0 0.0 --- 0.04 29.717
05/08/2003 1:00 a 60.3 60.3 60.3 60.6 59.5 96 59.2 0.0 1.0 --- 0.02 29.707
05/08/2003 1:30 a 59.0 59.0 59.0 59.5 58.8 97 58.2 0.0 1.0 --- 0.00 29.701
05/08/2003 2:00 a 59.0 59.0 59.0 59.1 58.8 96 57.9 0.0 1.0 E 0.02 29.686
05/08/2003 2:30 a 58.8 58.8 58.8 59.0 58.6 96 57.7 0.0 1.0 E 0.01 29.670
05/08/2003 3:00 a 58.6 58.6 58.6 58.7 58.4 97 57.8 0.0 1.0 E 0.00 29.641
05/08/2003 3:30 a 58.5 58.5 58.5 58.7 58.4 97 57.7 0.0 2.0 E 0.01 29.659
05/08/2003 4:00 a 58.6 58.6 58.6 58.7 58.5 97 57.8 0.0 0.0 --- 0.00 29.671
05/08/2003 4:30 a 58.8 58.8 58.8 58.9 58.7 97 58.0 0.0 1.0 E 0.00 29.681
05/08/2003 5:00 a 58.9 58.9 58.9 59.0 58.9 97 58.1 0.0 0.0 --- 0.00 29.690
05/08/2003 5:30 a 58.9 58.9 58.9 58.9 58.9 97 58.1 0.0 0.0 --- 0.00 29.695
05/08/2003 6:00 a 58.9 58.9 58.9 58.9 58.8 97 58.1 0.0 0.0 --- 0.00 29.705
05/08/2003 6:30 a 58.9 58.9 58.9 59.0 58.7 97 58.1 0.0 2.0 E 0.00 29.717
05/08/2003 7:00 a 58.6 58.6 58.6 58.7 58.5 97 57.8 0.0 1.0 --- 0.00 29.722
05/08/2003 7:30 a 58.6 58.6 58.6 58.7 58.5 97 57.8 0.0 0.0 --- 0.00 29.722
05/08/2003 8:00 a 58.8 58.8 58.8 58.8 58.7 97 58.0 0.0 0.0 --- 0.00 29.721
05/08/2003 8:30 a 58.9 58.9 58.9 58.9 58.8 97 58.1 0.0 0.0 --- 0.00 29.726
05/08/2003 9:00 a 59.0 59.0 59.0 59.1 58.8 97 58.2 0.0 1.0 --- 0.00 29.726
05/08/2003 9:30 a 58.8 58.8 58.8 58.9 58.6 97 58.0 0.0 0.0 --- 0.00 29.730
05/08/2003 10:00 a 58.6 58.6 58.6 58.8 58.5 97 57.8 0.0 0.0 --- 0.00 29.733
05/08/2003 10:30 a 59.1 59.1 59.1 59.3 58.6 97 58.3 0.0 1.0 --- 0.00 29.743
05/08/2003 11:00 a 58.9 58.9 58.9 59.1 58.7 97 58.1 0.0 0.0 --- 0.00 29.749
05/08/2003 11:30 a 58.7 58.7 58.7 58.9 58.1 97 57.9 0.0 4.0 NE 0.00 29.750
05/08/2003 12:00 p 58.0 58.0 58.0 58.1 57.9 97 57.2 0.0 1.0 NE 0.00 29.756
05/08/2003 12:30 p 57.9 57.9 57.9 58.0 57.6 97 57.1 0.0 2.0 NE 0.00 29.759
05/08/2003 1:00 p 57.5 57.5 57.5 57.7 57.2 97 56.7 0.0 1.0 NE 0.00 29.768
05/08/2003 1:30 p 57.0 57.0 57.0 57.2 56.5 97 56.2 0.0 1.0 NE 0.00 29.788
05/08/2003 2:00 p 56.1 56.1 56.1 56.6 55.9 97 55.3 0.0 2.0 NE 0.00 29.789
05/08/2003 2:30 p 55.9 55.9 55.9 56.2 55.6 97 55.1 0.0 1.0 NE 0.00 29.794
05/08/2003 3:00 p 55.8 55.8 55.8 56.2 55.5 97 55.0 0.0 1.0 NE 0.00 29.800
05/08/2003 3:30 p 56.1 56.1 56.1 56.3 55.7 97 55.3 0.0 3.0 N 0.00 29.791
05/08/2003 4:00 p 55.6 55.6 55.6 56.1 55.2 96 54.5 0.0 2.0 N 0.00 29.798
05/08/2003 4:30 p 56.2 56.2 56.2 56.8 55.9 97 55.4 0.0 0.0 --- 0.00 29.804
05/08/2003 5:00 p 56.8 56.8 56.8 57.0 56.7 97 56.0 0.0 1.0 N 0.00 29.811
05/08/2003 5:30 p 57.1 57.1 57.1 57.5 56.7 96 56.0 0.0 1.0 --- 0.00 29.810
05/08/2003 6:00 p 56.9 56.9 56.9 57.5 56.6 96 55.8 0.0 1.0 --- 0.00 29.824
05/08/2003 6:30 p 56.6 56.6 56.6 56.7 56.4 97 55.8 0.0 0.0 --- 0.00 29.833
05/08/2003 7:00 p 56.3 56.3 56.3 56.4 56.2 97 55.5 0.0 0.0 --- 0.00 29.834
05/08/2003 7:30 p 56.0 56.0 56.0 56.2 55.7 96 54.9 0.0 0.0 --- 0.00 29.854
05/08/2003 8:00 p 55.5 55.5 55.5 55.7 55.3 96 54.4 0.0 1.0 N 0.00 29.856
05/08/2003 8:30 p 55.2 55.2 55.2 55.3 55.1 96 54.1 0.0 1.0 N 0.00 29.867
05/08/2003 9:00 p 54.9 54.9 54.9 55.1 54.7 96 53.8 0.0 2.0 N 0.00 29.876
05/08/2003 9:30 p 54.6 54.6 54.6 54.7 54.6 96 53.5 0.0 1.0 N 0.00 29.881
05/08/2003 10:00 p 54.6 54.6 54.6 54.6 54.5 96 53.5 0.0 1.0 N 0.00 29.887
05/08/2003 10:30 p 54.5 54.5 54.5 54.6 54.5 96 53.4 0.0 1.0 N 0.00 29.885
05/08/2003 11:00 p 54.4 54.4 54.4 54.5 54.3 96 53.3 0.0 1.0 --- 0.00 29.891
05/08/2003 11:30 p 54.2 54.2 54.2 54.3 54.2 96 53.1 0.0 1.0 N 0.00 29.884
05/09/2003 12:00 a 54.1 54.1 54.1 54.2 54.0 96 53.0 0.0 1.0 N 0.00 29.878
05/09/2003 12:30 a 53.9 53.9 53.9 54.0 53.9 96 52.8 0.0 0.0 --- 0.00 29.872
05/09/2003 1:00 a 53.8 53.8 53.8 53.9 53.8 96 52.7 0.0 1.0 N 0.00 29.867
05/09/2003 1:30 a 53.6 53.6 53.6 53.8 53.3 96 52.5 0.0 1.0 N 0.00 29.850
05/09/2003 2:00 a 53.1 53.1 53.1 53.3 52.9 96 52.0 0.0 0.0 --- 0.00 29.853
05/09/2003 2:30 a 53.0 53.0 53.0 53.0 52.9 96 51.9 0.0 0.0 --- 0.00 29.843
05/09/2003 3:00 a 52.6 52.6 52.6 52.9 52.4 97 51.8 0.0 2.0 NE 0.00 29.846
05/09/2003 3:30 a 52.5 52.5 52.5 52.6 52.5 97 51.7 0.0 0.0 --- 0.00 29.851
05/09/2003 4:00 a 52.6 52.6 52.6 52.6 52.5 97 51.8 0.0 0.0 --- 0.00 29.859
05/09/2003 4:30 a 52.5 52.5 52.5 52.5 52.5 97 51.7 0.0 0.0 --- 0.00 29.855
05/09/2003 5:00 a 52.6 52.6 52.6 52.7 52.5 97 51.8 0.0 0.0 --- 0.00 29.833
05/09/2003 5:30 a 52.7 52.7 52.7 52.7 52.6 97 51.9 0.0 0.0 --- 0.00 29.843
05/09/2003 6:00 a 52.8 52.8 52.8 52.8 52.7 97 52.0 0.0 0.0 --- 0.00 29.857
05/09/2003 6:30 a 52.9 52.9 52.9 53.1 52.8 97 52.1 0.0 0.0 --- 0.00 29.861
05/09/2003 7:00 a 53.4 53.4 53.4 53.6 53.1 97 52.6 0.0 0.0 --- 0.00 29.829
05/09/2003 7:30 a 54.0 54.0 54.0 54.4 53.5 97 53.2 0.0 1.0 --- 0.00 29.847
05/09/2003 8:00 a 54.5 54.5 54.5 54.6 54.4 97 53.7 0.0 0.0 --- 0.00 29.866
05/09/2003 8:30 a 54.7 54.7 54.7 55.1 54.5 97 53.9 0.0 1.0 --- 0.00 29.852
05/09/2003 9:00 a 55.9 55.9 55.9 56.8 55.1 97 55.1 0.0 1.0 NE 0.00 29.851
05/09/2003 9:30 a 57.3 57.3 57.3 57.4 56.8 97 56.5 0.0 2.0 SW 0.00 29.838
05/09/2003 10:00 a 57.8 57.8 57.8 58.4 57.4 96 56.7 0.0 1.0 SW 0.00 29.830
05/09/2003 10:30 a 59.4 59.4 59.4 60.4 58.4 94 57.7 0.0 2.0 SW 0.00 29.819
05/09/2003 11:00 a 61.3 61.3 61.3 62.4 60.3 93 59.3 0.0 2.0 S 0.00 29.821
05/09/2003 11:30 a 62.6 62.6 62.6 63.0 62.2 93 60.6 0.0 2.0 S 0.00 29.821
05/09/2003 12:00 p 63.5 63.5 63.5 63.8 63.0 92 61.1 0.0 2.0 S 0.00 29.810
05/09/2003 12:30 p 63.6 63.6 63.6 63.9 63.2 92 61.2 0.0 0.0 --- 0.01 29.809
05/09/2003 1:00 p 63.0 63.0 63.0 63.7 62.5 93 60.9 0.0 0.0 --- 0.00 29.801
05/09/2003 1:30 p 61.8 61.8 61.8 62.5 61.2 94 60.1 0.0 0.0 --- 0.00 29.796
05/09/2003 2:00 p 59.7 59.7 59.7 61.2 58.7 96 58.6 0.0 0.0 --- 0.01 29.780
05/09/2003 2:30 p 59.5 59.5 59.5 60.8 58.8 96 58.4 0.0 0.0 --- 0.01 29.773
05/09/2003 3:00 p 61.5 61.5 61.5 62.0 60.8 96 60.4 0.0 0.0 --- 0.01 29.753
05/09/2003 3:30 p 60.8 60.8 60.8 60.9 60.7 96 59.7 0.0 0.0 --- 0.00 29.736
05/09/2003 4:00 p 60.8 60.8 60.8 61.0 60.7 96 59.7 0.0 0.0 --- 0.00 29.741
05/09/2003 4:30 p 61.9 61.9 61.9 62.4 61.0 95 60.5 0.0 2.0 SSE 0.00 29.739
05/09/2003 5:00 p 61.4 61.4 61.4 62.1 60.7 95 60.0 0.0 2.0 SSE 0.00 29.743
05/09/2003 5:30 p 60.2 60.2 60.2 60.8 59.7 96 59.1 0.0 0.0 --- 0.00 29.751
05/09/2003 6:00 p 59.2 59.2 59.2 59.7 59.0 96 58.1 0.0 0.0 --- 0.00 29.750
05/09/2003 6:30 p 59.0 59.0 59.0 59.1 58.9 96 57.9 0.0 1.0 --- 0.00 29.743
05/09/2003 7:00 p 59.0 59.0 59.0 59.0 58.8 96 57.9 0.0 0.0 --- 0.00 29.731
05/09/2003 7:30 p 58.4 58.4 58.4 58.8 57.7 96 57.3 0.0 0.0 --- 0.00 29.732
05/09/2003 8:00 p 56.8 56.8 56.8 57.7 56.0 96 55.7 0.0 0.0 --- 0.00 29.744
05/09/2003 8:30 p 55.4 55.4 55.4 56.0 55.0 96 54.3 0.0 0.0 --- 0.00 29.755
05/09/2003 9:00 p 54.8 54.8 54.8 55.1 54.2 97 54.0 0.0 0.0 --- 0.00 29.770
05/09/2003 9:30 p 53.7 53.7 53.7 54.2 53.4 96 52.6 0.0 0.0 --- 0.00 29.772
05/09/2003 10:00 p 53.3 53.3 53.3 53.5 52.9 96 52.2 0.0 0.0 --- 0.00 29.774
05/09/2003 10:30 p 52.7 52.7 52.7 53.0 52.3 97 51.9 0.0 0.0 --- 0.00 29.777
05/09/2003 11:00 p 52.4 52.4 52.4 52.5 52.3 97 51.6 0.0 0.0 --- 0.00 29.778
05/09/2003 11:30 p 52.4 52.4 52.4 52.8 52.2 97 51.6 0.0 0.0 --- 0.00 29.788
05/10/2003 12:00 a 53.2 53.2 53.2 53.5 52.8 97 52.4 0.0 0.0 --- 0.00 29.787
05/10/2003 12:30 a 53.1 53.1 53.1 53.2 53.0 97 52.3 0.0 0.0 --- 0.00 29.778
05/10/2003 1:00 a 53.8 53.8 53.8 54.2 53.2 97 53.0 0.0 0.0 --- 0.00 29.772
05/10/2003 1:30 a 54.3 54.3 54.3 54.4 54.2 97 53.5 0.0 0.0 --- 0.00 29.753
05/10/2003 2:00 a 54.1 54.1 54.1 54.2 53.8 97 53.3 0.0 0.0 --- 0.00 29.761
05/10/2003 2:30 a 53.6 53.6 53.6 53.9 53.3 97 52.8 0.0 0.0 --- 0.00 29.752
05/10/2003 3:00 a 53.0 53.0 53.0 53.3 52.7 97 52.2 0.0 0.0 --- 0.00 29.753
05/10/2003 3:30 a 52.6 52.6 52.6 52.7 52.5 97 51.8 0.0 0.0 --- 0.00 29.759
05/10/2003 4:00 a 52.4 52.4 52.4 52.6 52.2 97 51.6 0.0 0.0 --- 0.00 29.759
05/10/2003 4:30 a 51.8 51.8 51.8 52.2 51.5 97 51.0 0.0 0.0 --- 0.00 29.764
05/10/2003 5:00 a 51.4 51.4 51.4 51.6 51.2 97 50.6 0.0 0.0 --- 0.00 29.760
05/10/2003 5:30 a 51.0 51.0 51.0 51.2 50.8 97 50.2 0.0 0.0 --- 0.00 29.760
05/10/2003 6:00 a 50.9 50.9 50.9 51.0 50.7 97 50.1 0.0 0.0 --- 0.00 29.780
05/10/2003 6:30 a 50.7 50.7 50.7 50.9 50.6 97 49.9 0.0 0.0 --- 0.00 29.784
05/10/2003 7:00 a 50.7 50.7 50.7 51.0 50.6 97 49.9 0.0 0.0 --- 0.00 29.790
05/10/2003 7:30 a 52.0 52.0 52.0 52.9 51.0 97 51.2 0.0 0.0 --- 0.00 29.807
05/10/2003 8:00 a 53.4 53.4 53.4 54.0 52.9 97 52.6 0.0 0.0 --- 0.00 29.793
05/10/2003 8:30 a 54.3 54.3 54.3 54.9 54.0 96 53.2 0.0 0.0 --- 0.00 29.765
05/10/2003 9:00 a 56.7 56.7 56.7 59.1 54.9 96 55.6 0.0 2.0 SSE 0.00 29.768
05/10/2003 9:30 a 58.3 58.3 58.3 58.8 58.1 96 57.2 0.0 1.0 --- 0.00 29.772
05/10/2003 10:00 a 58.5 58.5 58.5 59.0 58.1 95 57.1 0.0 1.0 SSE 0.00 29.769
05/10/2003 10:30 a 59.4 59.4 59.4 59.7 59.1 94 57.7 0.0 2.0 ESE 0.00 29.780
05/10/2003 11:00 a 60.0 60.0 60.0 60.6 59.6 92 57.7 0.0 2.0 ESE 0.00 29.770
05/10/2003 11:30 a 60.8 60.8 60.8 61.2 60.6 91 58.2 0.0 1.0 ESE 0.00 29.777
05/10/2003 12:00 p 60.9 60.9 60.9 61.2 60.6 91 58.3 0.0 1.0 ESE 0.00 29.778
05/10/2003 12:30 p 61.3 61.3 61.3 61.8 60.6 90 58.3 0.0 1.0 E 0.00 29.744
05/10/2003 1:00 p 62.1 62.1 62.1 62.5 61.7 86 57.9 0.0 2.0 E 0.00 29.736
05/10/2003 1:30 p 64.1 64.1 64.1 66.2 62.3 78 57.1 0.0 3.0 SSE 0.00 29.721
05/10/2003 2:00 p 67.8 67.8 67.8 71.0 66.2 68 56.9 0.0 2.0 SSE 0.00 29.710
05/10/2003 2:30 p 74.2 73.8 73.8 75.4 71.1 61 59.5 0.0 2.0 SSE 0.00 29.698
05/10/2003 3:00 p 76.2 75.0 75.0 76.9 71.5 66 62.9 0.0 1.0 E 0.00 29.668
05/10/2003 3:30 p 70.0 70.0 70.0 71.4 69.2 70 59.8 0.0 3.0 NW 0.00 29.670
05/10/2003 4:00 p 69.0 68.0 68.0 69.2 67.3 75 59.8 0.0 2.0 NW 0.00 29.664
05/10/2003 4:30 p 67.4 67.4 67.4 67.7 67.1 75 59.2 0.0 2.0 WSW 0.00 29.659
05/10/2003 5:00 p 67.2 67.2 67.2 67.4 67.0 76 59.4 0.0 2.0 WSW 0.00 29.643
05/10/2003 5:30 p 67.2 67.2 67.2 67.5 67.0 76 59.4 0.0 2.0 SSW 0.00 29.646
05/10/2003 6:00 p 67.3 67.3 67.3 67.7 66.6 77 59.9 0.0 1.0 --- 0.00 29.644
05/10/2003 6:30 p 66.7 66.7 66.7 66.8 66.6 75 58.5 0.0 2.0 SSE 0.00 29.643
05/10/2003 7:00 p 65.8 65.8 65.8 66.6 64.8 80 59.5 0.0 0.0 --- 0.00 29.642
05/10/2003 7:30 p 63.9 63.9 63.9 64.8 63.1 85 59.3 0.0 0.0 --- 0.00 29.650
05/10/2003 8:00 p 62.4 62.4 62.4 63.1 62.0 87 58.5 0.0 0.0 --- 0.00 29.639
05/10/2003 8:30 p 61.5 61.5 61.5 62.0 61.3 89 58.2 0.0 0.0 --- 0.00 29.647
05/10/2003 9:00 p 61.4 61.4 61.4 61.5 61.3 89 58.1 0.0 0.0 --- 0.00 29.660
05/10/2003 9:30 p 61.4 61.4 61.4 61.6 61.1 90 58.4 0.0 0.0 --- 0.00 29.658
05/10/2003 10:00 p 60.5 60.5 60.5 61.1 60.1 92 58.2 0.0 0.0 --- 0.00 29.656
05/10/2003 10:30 p 59.7 59.7 59.7 60.1 59.4 94 58.0 0.0 0.0 --- 0.00 29.657
05/10/2003 11:00 p 59.0 59.0 59.0 59.5 58.5 94 57.3 0.0 0.0 --- 0.00 29.646
05/10/2003 11:30 p 58.0 58.0 58.0 58.5 57.5 94 56.3 0.0 0.0 --- 0.00 29.650
05/11/2003 12:00 a 57.2 57.2 57.2 57.5 57.0 95 55.8 0.0 0.0 --- 0.00 29.657
05/11/2003 12:30 a 57.3 57.3 57.3 57.6 57.1 95 55.9 0.0 0.0 --- 0.00 29.662
05/11/2003 1:00 a 58.1 58.1 58.1 58.6 57.6 95 56.7 0.0 0.0 --- 0.00 29.660
05/11/2003 1:30 a 58.7 58.7 58.7 59.0 58.6 95 57.3 0.0 0.0 --- 0.00 29.643
05/11/2003 2:00 a 58.7 58.7 58.7 59.0 58.5 94 57.0 0.0 0.0 --- 0.00 29.626
05/11/2003 2:30 a 58.0 58.0 58.0 58.5 57.7 95 56.6 0.0 0.0 --- 0.00 29.626
05/11/2003 3:00 a 58.2 58.2 58.2 58.7 57.7 95 56.8 0.0 0.0 --- 0.00 29.629
05/11/2003 3:30 a 59.0 59.0 59.0 59.2 58.7 95 57.6 0.0 0.0 --- 0.00 29.619
05/11/2003 4:00 a 59.3 59.3 59.3 59.4 59.2 94 57.6 0.0 0.0 --- 0.00 29.625
05/11/2003 4:30 a 59.4 59.4 59.4 59.6 59.3 94 57.7 0.0 0.0 --- 0.00 29.617
05/11/2003 5:00 a 59.6 59.6 59.6 59.6 59.5 94 57.9 0.0 0.0 --- 0.00 29.612
05/11/2003 5:30 a 59.6 59.6 59.6 59.7 59.5 94 57.9 0.0 0.0 --- 0.00 29.605
05/11/2003 6:00 a 59.7 59.7 59.7 59.7 59.6 94 58.0 0.0 0.0 --- 0.00 29.626
05/11/2003 6:30 a 60.0 60.0 60.0 60.2 59.7 94 58.3 0.0 0.0 --- 0.00 29.620
05/11/2003 7:00 a 60.2 60.2 60.2 60.3 60.1 94 58.5 0.0 0.0 --- 0.00 29.637
05/11/2003 7:30 a 60.4 60.4 60.4 60.6 60.3 95 59.0 0.0 0.0 --- 0.00 29.634
05/11/2003 8:00 a 60.6 60.6 60.6 60.7 60.4 95 59.2 0.0 0.0 --- 0.00 29.625
05/11/2003 8:30 a 61.0 61.0 61.0 61.4 60.7 95 59.6 0.0 0.0 --- 0.00 29.613
05/11/2003 9:00 a 62.1 62.1 62.1 62.6 61.5 95 60.7 0.0 0.0 --- 0.00 29.608
05/11/2003 9:30 a 63.2 63.2 63.2 63.9 62.6 94 61.4 0.0 0.0 --- 0.00 29.604
05/11/2003 10:00 a 64.2 64.2 64.2 64.4 63.8 91 61.5 0.0 3.0 NNE 0.00 29.622
05/11/2003 10:30 a 64.9 64.9 64.9 65.2 64.4 89 61.6 0.0 2.0 NNE 0.00 29.601
05/11/2003 11:00 a 65.6 65.6 65.6 66.0 65.1 86 61.3 1.0 3.0 N 0.00 29.591
05/11/2003 11:30 a 65.4 65.4 65.4 66.0 64.9 87 61.4 1.0 3.0 NNE 0.00 29.590
05/11/2003 12:00 p 64.5 64.5 64.5 64.9 64.4 87 60.6 0.0 3.0 N 0.00 29.567
05/11/2003 12:30 p 64.5 64.5 64.5 64.8 64.2 87 60.6 0.0 2.0 N 0.00 29.550
05/11/2003 1:00 p 63.4 63.4 63.4 64.2 62.1 87 59.5 1.0 4.0 N 0.00 29.548
05/11/2003 1:30 p 61.3 61.3 61.3 62.1 60.4 87 57.4 0.0 2.0 N 0.00 29.551
05/11/2003 2:00 p 59.6 59.6 59.6 60.4 59.2 88 56.0 0.0 3.0 N 0.00 29.531
05/11/2003 2:30 p 59.6 59.6 59.6 59.9 59.2 87 55.7 0.0 3.0 N 0.00 29.522
05/11/2003 3:00 p 60.0 60.0 60.0 60.3 59.5 86 55.8 0.0 2.0 N 0.00 29.499
05/11/2003 3:30 p 58.7 58.7 58.7 60.2 57.1 90 55.8 1.0 6.0 N 0.00 29.481
05/11/2003 4:00 p 56.7 56.7 56.7 57.1 56.4 91 54.1 1.0 3.0 N 0.00 29.457
05/11/2003 4:30 p 56.6 56.6 56.6 56.7 56.4 91 54.0 0.0 3.0 N 0.00 29.443
05/11/2003 5:00 p 56.4 56.4 56.4 56.5 56.0 92 54.1 0.0 4.0 N 0.00 29.438
05/11/2003 5:30 p 55.3 55.3 55.3 56.0 55.0 94 53.6 1.0 4.0 NNE 0.00 29.432
05/11/2003 6:00 p 54.8 54.8 54.8 55.0 54.7 94 53.1 0.0 2.0 N 0.00 29.418
05/11/2003 6:30 p 54.9 54.9 54.9 55.1 54.8 95 53.5 0.0 2.0 N 0.00 29.408
05/11/2003 7:00 p 55.0 55.0 55.0 55.1 54.9 95 53.6 0.0 2.0 NE 0.00 29.405
05/11/2003 7:30 p 54.9 54.9 54.9 55.0 54.7 95 53.5 0.0 2.0 NE 0.00 29.385
05/11/2003 8:00 p 54.6 54.6 54.6 54.7 54.6 95 53.2 0.0 1.0 N 0.00 29.384
05/11/2003 8:30 p 54.6 54.6 54.6 54.7 54.5 95 53.2 0.0 2.0 NE 0.00 29.371
05/11/2003 9:00 p 54.6 54.6 54.6 54.7 54.5 95 53.2 0.0 2.0 ENE 0.00 29.368
05/11/2003 9:30 p 54.7 54.7 54.7 54.8 54.6 96 53.6 0.0 1.0 ENE 0.00 29.371
05/11/2003 10:00 p 54.9 54.9 54.9 55.1 54.7 96 53.8 0.0 3.0 E 0.00 29.361
05/11/2003 10:30 p 55.2 55.2 55.2 55.3 55.1 96 54.1 0.0 2.0 E 0.00 29.362
05/11/2003 11:00 p 55.5 55.5 55.5 55.7 55.3 96 54.4 0.0 2.0 E 0.00 29.345
05/11/2003 11:30 p 55.8 55.8 55.8 55.9 55.6 96 54.7 0.0 2.0 E 0.00 29.327
05/12/2003 12:00 a 56.0 56.0 56.0 56.2 55.9 96 54.9 0.0 2.0 E 0.00 29.351
05/12/2003 12:30 a 56.4 56.4 56.4 56.6 56.2 96 55.3 0.0 6.0 SSE 0.00 29.356
05/12/2003 1:00 a 56.2 56.2 56.2 56.3 56.1 96 55.1 0.0 0.0 --- 0.00 29.360
05/12/2003 1:30 a 56.1 56.1 56.1 56.1 56.0 96 55.0 0.0 2.0 SSE 0.00 29.365
05/12/2003 2:00 a 55.9 55.9 55.9 56.0 55.9 96 54.8 0.0 2.0 SSE 0.00 29.375
05/12/2003 2:30 a 55.9 55.9 55.9 56.0 55.8 96 54.8 0.0 0.0 --- 0.00 29.373
05/12/2003 3:00 a 55.8 55.8 55.8 55.9 55.7 96 54.7 0.0 0.0 --- 0.00 29.381
05/12/2003 3:30 a 55.5 55.5 55.5 55.7 55.0 96 54.4 0.0 0.0 --- 0.00 29.381
05/12/2003 4:00 a 54.9 54.9 54.9 55.0 54.7 96 53.8 0.0 0.0 --- 0.00 29.378
05/12/2003 4:30 a 54.8 54.8 54.8 54.9 54.7 96 53.7 0.0 0.0 --- 0.00 29.395
05/12/2003 5:00 a 55.0 55.0 55.0 55.1 54.8 96 53.9 0.0 0.0 --- 0.00 29.389
05/12/2003 5:30 a 54.9 54.9 54.9 55.0 54.8 96 53.8 0.0 0.0 --- 0.00 29.397
05/12/2003 6:00 a 55.0 55.0 55.0 55.2 54.9 96 53.9 0.0 0.0 --- 0.00 29.398
05/12/2003 6:30 a 55.6 55.6 55.6 56.1 55.2 96 54.5 0.0 0.0 --- 0.00 29.401
05/12/2003 7:00 a 56.2 56.2 56.2 56.3 56.0 97 55.4 0.0 0.0 --- 0.00 29.405
05/12/2003 7:30 a 56.6 56.6 56.6 56.9 56.3 97 55.8 0.0 1.0 SSE 0.00 29.404
05/12/2003 8:00 a 57.5 57.5 57.5 57.9 56.9 97 56.7 0.0 0.0 --- 0.00 29.405
05/12/2003 8:30 a 58.2 58.2 58.2 59.0 57.9 96 57.1 0.0 0.0 --- 0.00 29.402
05/12/2003 9:00 a 59.1 59.1 59.1 59.2 58.9 95 57.7 0.0 0.0 --- 0.00 29.399
05/12/2003 9:30 a 60.8 60.8 60.8 62.8 59.2 85 56.3 0.0 1.0 --- 0.00 29.402
05/12/2003 10:00 a 63.1 63.1 63.1 64.0 62.5 81 57.2 0.0 1.0 SSE 0.00 29.399
05/12/2003 10:30 a 64.2 64.2 64.2 64.7 63.9 72 55.0 0.0 2.0 SSE 0.00 29.395
05/12/2003 11:00 a 65.8 65.8 65.8 67.9 64.1 60 51.5 0.0 4.0 SSE 0.00 29.393
05/12/2003 11:30 a 66.4 66.4 66.4 67.8 65.5 56 50.2 0.0 5.0 SSE 0.00 29.387
05/12/2003 12:00 p 66.5 66.5 66.5 66.7 66.4 54 49.4 0.0 4.0 S 0.00 29.383
05/12/2003 12:30 p 67.6 67.6 67.6 68.9 66.3 50 48.3 0.0 3.0 S 0.00 29.374
05/12/2003 1:00 p 62.2 62.2 62.2 66.3 59.9 69 51.9 1.0 7.0 SSE 0.00 29.395
05/12/2003 1:30 p 62.3 62.3 62.3 63.7 60.5 58 47.4 0.0 4.0 SSE 0.00 29.390
05/12/2003 2:00 p 64.2 64.2 64.2 64.7 63.7 54 47.2 0.0 3.0 SW 0.00 29.381
05/12/2003 2:30 p 65.4 65.4 65.4 66.3 64.6 46 44.1 1.0 5.0 S 0.00 29.382
05/12/2003 3:00 p 66.4 66.4 66.4 67.2 65.8 47 45.6 1.0 5.0 SSE 0.00 29.377
05/12/2003 3:30 p 65.4 65.4 65.4 67.5 63.9 49 45.8 0.0 5.0 S 0.00 29.382
05/12/2003 4:00 p 62.7 62.7 62.7 64.0 61.2 58 47.7 1.0 7.0 SSE 0.00 29.391
05/12/2003 4:30 p 60.9 60.9 60.9 61.2 60.7 59 46.5 0.0 4.0 S 0.00 29.388
05/12/2003 5:00 p 61.8 61.8 61.8 62.3 61.0 56 46.0 1.0 4.0 SW 0.00 29.390
05/12/2003 5:30 p 62.2 62.2 62.2 62.6 61.9 54 45.4 1.0 4.0 S 0.00 29.388
05/12/2003 6:00 p 61.7 61.7 61.7 62.3 60.6 53 44.4 1.0 4.0 S 0.00 29.395
05/12/2003 6:30 p 60.2 60.2 60.2 60.6 59.6 56 44.5 1.0 6.0 SSE 0.00 29.392
05/12/2003 7:00 p 59.5 59.5 59.5 59.8 59.1 54 42.9 1.0 6.0 SSE 0.00 29.413
05/12/2003 7:30 p 57.9 57.9 57.9 59.1 57.1 58 43.2 0.0 3.0 S 0.00 29.420
05/12/2003 8:00 p 56.8 56.8 56.8 57.2 56.2 62 43.9 0.0 3.0 SSW 0.00 29.433
05/12/2003 8:30 p 56.0 56.0 56.0 56.2 55.8 63 43.6 0.0 2.0 SSW 0.00 29.436
05/12/2003 9:00 p 55.2 55.2 55.2 55.9 54.7 65 43.7 0.0 2.0 S 0.00 29.442
05/12/2003 9:30 p 54.5 54.5 54.5 54.7 54.3 66 43.4 0.0 2.0 S 0.00 29.457
05/12/2003 10:00 p 54.9 54.9 54.9 55.3 54.5 64 43.0 0.0 1.0 --- 0.00 29.461
05/12/2003 10:30 p 55.2 55.2 55.2 55.3 55.0 65 43.7 0.0 0.0 --- 0.00 29.459
05/12/2003 11:00 p 55.0 55.0 55.0 55.3 54.2 65 43.5 0.0 3.0 E 0.00 29.451
05/12/2003 11:30 p 54.2 54.2 54.2 54.3 54.0 65 42.7 0.0 2.0 E 0.00 29.448
05/13/2003 12:00 a 53.5 53.5 53.5 54.0 52.9 69 43.6 0.0 1.0 SE 0.00 29.444
05/13/2003 12:30 a 53.2 53.2 53.2 53.3 52.9 67 42.5 0.0 1.0 NE 0.00 29.443
05/13/2003 1:00 a 52.6 52.6 52.6 53.3 51.8 71 43.5 0.0 1.0 --- 0.00 29.439
05/13/2003 1:30 a 51.3 51.3 51.3 51.8 50.9 73 43.0 0.0 2.0 E 0.00 29.433
05/13/2003 2:00 a 51.0 51.0 51.0 51.3 50.9 72 42.3 0.0 2.0 SSE 0.00 29.433
05/13/2003 2:30 a 51.1 51.1 51.1 51.6 50.8 71 42.0 0.0 1.0 SW 0.00 29.433
05/13/2003 3:00 a 51.9 51.9 51.9 52.0 51.6 69 42.1 0.0 2.0 SSW 0.00 29.435
05/13/2003 3:30 a 51.9 51.9 51.9 52.0 51.5 69 42.1 0.0 2.0 SW 0.00 29.435
05/13/2003 4:00 a 51.5 51.5 51.5 51.5 51.4 69 41.7 0.0 3.0 S 0.00 29.436
05/13/2003 4:30 a 51.0 51.0 51.0 51.4 50.5 72 42.3 0.0 2.0 S 0.00 29.438
05/13/2003 5:00 a 50.1 50.1 50.1 50.5 49.9 73 41.8 0.0 2.0 S 0.00 29.443
05/13/2003 5:30 a 50.2 50.2 50.2 50.5 50.0 71 41.2 0.0 0.0 --- 0.00 29.448
05/13/2003 6:00 a 51.2 51.2 51.2 51.6 50.5 68 41.0 0.0 1.0 S 0.00 29.462
05/13/2003 6:30 a 52.0 52.0 52.0 52.3 51.6 67 41.4 0.0 2.0 S 0.00 29.470
05/13/2003 7:00 a 52.5 52.5 52.5 52.6 52.3 67 41.9 0.0 2.0 S 0.00 29.481
05/13/2003 7:30 a 53.1 53.1 53.1 53.9 52.6 65 41.7 0.0 1.0 --- 0.00 29.482
05/13/2003 8:00 a 53.6 53.6 53.6 53.7 53.6 65 42.1 0.0 3.0 S 0.00 29.482
05/13/2003 8:30 a 53.8 53.8 53.8 54.0 53.6 63 41.5 0.0 2.0 SSE 0.00 29.486
05/13/2003 9:00 a 54.4 54.4 54.4 55.2 54.0 59 40.4 0.0 4.0 SSE 0.00 29.484
05/13/2003 9:30 a 56.3 56.3 56.3 56.8 55.2 56 40.8 1.0 4.0 SSE 0.00 29.481
05/13/2003 10:00 a 56.2 56.2 56.2 56.4 56.0 57 41.2 1.0 5.0 SSE 0.00 29.481
05/13/2003 10:30 a 56.7 56.7 56.7 57.8 56.0 54 40.3 0.0 6.0 S 0.00 29.484
05/13/2003 11:00 a 58.3 58.3 58.3 58.6 57.8 54 41.7 1.0 5.0 SSE 0.00 29.485
05/13/2003 11:30 a 58.3 58.3 58.3 59.4 57.7 50 39.8 1.0 11.0 SSE 0.00 29.481
05/13/2003 12:00 p 58.9 58.9 58.9 59.6 58.2 49 39.8 1.0 5.0 S 0.00 29.479
05/13/2003 12:30 p 59.7 59.7 59.7 61.4 57.9 50 41.0 1.0 4.0 SSE 0.00 29.479
05/13/2003 1:00 p 59.3 59.3 59.3 61.2 57.8 50 40.7 1.0 6.0 SSE 0.00 29.485
05/13/2003 1:30 p 57.9 57.9 57.9 59.0 57.3 53 40.9 1.0 6.0 S 0.00 29.489
05/13/2003 2:00 p 57.4 57.4 57.4 58.2 57.1 51 39.4 1.0 6.0 SSE 0.00 29.490
05/13/2003 2:30 p 58.4 58.4 58.4 59.1 57.4 54 41.8 1.0 5.0 SSE 0.00 29.499
05/13/2003 3:00 p 57.6 57.6 57.6 58.2 57.2 53 40.6 1.0 5.0 SSE 0.00 29.500
05/13/2003 3:30 p 57.0 57.0 57.0 57.8 56.5 53 40.1 1.0 4.0 SE 0.00 29.505
05/13/2003 4:00 p 59.6 59.6 59.6 60.9 57.8 47 39.4 1.0 7.0 SSE 0.00 29.505
05/13/2003 4:30 p 59.8 59.8 59.8 61.8 58.1 51 41.7 1.0 6.0 SSE 0.00 29.519
05/13/2003 5:00 p 57.7 57.7 57.7 58.1 57.4 52 40.2 1.0 6.0 SSE 0.00 29.528
05/13/2003 5:30 p 57.8 57.8 57.8 58.0 57.6 50 39.3 1.0 10.0 SSE 0.00 29.538
05/13/2003 6:00 p 57.8 57.8 57.8 58.1 57.2 51 39.8 1.0 5.0 SSE 0.00 29.547
05/13/2003 6:30 p 56.8 56.8 56.8 57.2 56.6 54 40.4 0.0 3.0 SE 0.00 29.557
05/13/2003 7:00 p 56.5 56.5 56.5 56.7 56.1 57 41.5 1.0 6.0 SSE 0.00 29.570
05/13/2003 7:30 p 55.9 55.9 55.9 56.1 55.7 59 41.8 0.0 4.0 SSE 0.00 29.584
05/13/2003 8:00 p 55.4 55.4 55.4 55.7 54.9 60 41.8 0.0 2.0 SE 0.00 29.599
05/13/2003 8:30 p 54.7 54.7 54.7 55.0 54.3 62 42.0 0.0 3.0 S 0.00 29.604
05/13/2003 9:00 p 54.0 54.0 54.0 54.3 53.6 63 41.7 0.0 4.0 SSE 0.00 29.613
05/13/2003 9:30 p 53.4 53.4 53.4 53.6 53.2 63 41.1 0.0 3.0 SSE 0.00 29.624
05/13/2003 10:00 p 53.4 53.4 53.4 53.5 53.2 62 40.7 0.0 4.0 SSW 0.00 29.636
05/13/2003 10:30 p 53.6 53.6 53.6 53.6 53.5 63 41.3 0.0 3.0 SE 0.00 29.633
05/13/2003 11:00 p 53.4 53.4 53.4 53.5 53.3 62 40.7 0.0 3.0 SE 0.00 29.635
05/13/2003 11:30 p 53.1 53.1 53.1 53.4 52.8 64 41.3 0.0 2.0 ESE 0.00 29.632
05/14/2003 12:00 a 52.5 52.5 52.5 52.9 52.1 67 41.9 0.0 1.0 SW 0.00 29.635
05/14/2003 12:30 a 51.9 51.9 51.9 52.1 51.8 67 41.3 0.0 0.0 --- 0.00 29.635
05/14/2003 1:00 a 51.8 51.8 51.8 51.8 51.7 68 41.6 0.0 0.0 --- 0.00 29.635
05/14/2003 1:30 a 51.9 51.9 51.9 52.0 51.8 68 41.7 0.0 1.0 --- 0.00 29.635
05/14/2003 2:00 a 51.7 51.7 51.7 52.0 51.3 69 41.9 0.0 0.0 --- 0.00 29.629
05/14/2003 2:30 a 51.2 51.2 51.2 51.3 50.6 71 42.1 0.0 1.0 --- 0.00 29.626
05/14/2003 3:00 a 50.2 50.2 50.2 50.6 49.7 73 41.9 0.0 0.0 --- 0.00 29.619
05/14/2003 3:30 a 49.4 49.4 49.4 49.9 48.9 74 41.5 0.0 3.0 SSW 0.00 29.620
05/14/2003 4:00 a 48.4 48.4 48.4 49.4 47.7 78 41.9 0.0 0.0 --- 0.00 29.635
05/14/2003 4:30 a 47.9 47.9 47.9 48.1 47.6 80 42.0 0.0 0.0 --- 0.00 29.637
05/14/2003 5:00 a 47.0 47.0 47.0 47.6 46.5 81 41.5 0.0 0.0 --- 0.00 29.646
05/14/2003 5:30 a 47.8 47.8 47.8 48.3 46.8 79 41.6 0.0 0.0 --- 0.00 29.652
05/14/2003 6:00 a 48.2 48.2 48.2 48.5 48.0 79 42.0 0.0 0.0 --- 0.00 29.666
05/14/2003 6:30 a 48.4 48.4 48.4 48.6 48.1 80 42.5 0.0 0.0 --- 0.00 29.675
05/14/2003 7:00 a 49.5 49.5 49.5 50.9 48.1 76 42.3 0.0 0.0 --- 0.00 29.684
05/14/2003 7:30 a 51.9 51.9 51.9 54.4 50.8 69 42.1 0.0 0.0 --- 0.00 29.692
05/14/2003 8:00 a 53.8 53.8 53.8 54.3 53.6 68 43.5 0.0 2.0 SW 0.00 29.696
05/14/2003 8:30 a 54.6 54.6 54.6 56.0 53.7 62 41.9 0.0 3.0 S 0.00 29.699
05/14/2003 9:00 a 57.6 57.6 57.6 59.5 56.0 55 41.6 1.0 5.0 S 0.00 29.701
05/14/2003 9:30 a 59.1 59.1 59.1 59.5 58.3 57 43.9 0.0 4.0 SSW 0.00 29.704
05/14/2003 10:00 a 59.2 59.2 59.2 60.4 58.0 52 41.6 0.0 4.0 SSE 0.00 29.705
05/14/2003 10:30 a 59.2 59.2 59.2 60.2 58.8 54 42.6 1.0 7.0 SSE 0.00 29.711
05/14/2003 11:00 a 60.2 60.2 60.2 61.2 59.2 51 42.0 0.0 4.0 SSE 0.00 29.713
05/14/2003 11:30 a 60.0 60.0 60.0 60.9 59.7 50 41.3 1.0 8.0 SSE 0.00 29.718
05/14/2003 12:00 p 62.0 62.0 62.0 62.8 60.9 46 41.0 1.0 5.0 SSE 0.00 29.713
05/14/2003 12:30 p 62.6 62.6 62.6 63.4 62.3 48 42.7 0.0 3.0 SE 0.00 29.709
05/14/2003 1:00 p 63.5 63.5 63.5 64.4 63.1 43 40.6 1.0 4.0 SSE 0.00 29.711
05/14/2003 1:30 p 65.2 65.2 65.2 66.0 64.0 44 42.8 1.0 4.0 SSE 0.00 29.717
05/14/2003 2:00 p 62.9 62.9 62.9 64.0 62.1 47 42.4 0.0 4.0 S 0.00 29.722
05/14/2003 2:30 p 62.6 62.6 62.6 63.9 61.9 46 41.6 0.0 3.0 S 0.00 29.724
05/14/2003 3:00 p 66.2 66.2 66.2 67.6 64.0 42 42.5 0.0 4.0 S 0.00 29.726
05/14/2003 3:30 p 66.0 68.0 68.0 69.2 66.9 40 42.8 0.0 5.0 SSE 0.00 29.731
05/14/2003 4:00 p 64.5 64.5 64.5 67.9 62.8 47 43.8 0.0 5.0 S 0.00 29.748
05/14/2003 4:30 p 62.8 62.8 62.8 63.0 62.7 47 42.3 0.0 4.0 SSE 0.00 29.754
05/14/2003 5:00 p 63.2 63.2 63.2 63.7 62.8 46 42.1 0.0 4.0 SSE 0.00 29.767
05/14/2003 5:30 p 62.9 62.9 62.9 63.0 62.8 45 41.3 0.0 5.0 SSE 0.00 29.770
05/14/2003 6:00 p 62.4 62.4 62.4 62.8 62.0 47 41.9 1.0 5.0 S 0.00 29.779
05/14/2003 6:30 p 62.3 62.3 62.3 62.5 62.1 46 41.3 0.0 6.0 SSE 0.00 29.782
05/14/2003 7:00 p 61.4 61.4 61.4 62.4 60.4 47 41.0 1.0 8.0 SSE 0.00 29.792
05/14/2003 7:30 p 59.6 59.6 59.6 60.4 58.7 52 42.0 0.0 3.0 SSE 0.00 29.807
05/14/2003 8:00 p 57.8 57.8 57.8 58.7 57.3 55 41.8 0.0 1.0 SSE 0.00 29.813
05/14/2003 8:30 p 56.6 56.6 56.6 57.3 55.6 63 44.2 0.0 1.0 --- 0.00 29.827
05/14/2003 9:00 p 54.3 54.3 54.3 55.7 52.6 68 44.0 0.0 0.0 --- 0.00 29.843
05/14/2003 9:30 p 51.5 51.5 51.5 52.6 50.7 73 43.1 0.0 0.0 --- 0.00 29.856
05/14/2003 10:00 p 50.5 50.5 50.5 50.7 50.4 75 42.9 0.0 0.0 --- 0.00 29.875
05/14/2003 10:30 p 49.7 49.7 49.7 50.5 49.0 77 42.8 0.0 0.0 --- 0.00 29.875
05/14/2003 11:00 p 48.3 48.3 48.3 49.0 47.5 83 43.4 0.0 0.0 --- 0.00 29.876
05/14/2003 11:30 p 47.0 47.0 47.0 47.5 46.4 85 42.7 0.0 0.0 --- 0.00 29.886
05/15/2003 12:00 a 45.7 45.7 45.7 46.4 45.2 87 42.1 0.0 0.0 --- 0.00 29.892
05/15/2003 12:30 a 44.8 44.8 44.8 45.2 44.3 88 41.5 0.0 0.0 --- 0.00 29.891
05/15/2003 1:00 a 44.0 44.0 44.0 44.3 43.7 89 41.0 0.0 0.0 --- 0.00 29.883
05/15/2003 1:30 a 43.3 43.3 43.3 43.7 43.0 90 40.6 0.0 0.0 --- 0.00 29.888
05/15/2003 2:00 a 42.9 42.9 42.9 43.2 42.7 91 40.5 0.0 0.0 --- 0.00 29.892
05/15/2003 2:30 a 42.6 42.6 42.6 42.8 42.5 91 40.2 0.0 0.0 --- 0.00 29.900
05/15/2003 3:00 a 42.2 42.2 42.2 42.6 41.8 91 39.8 0.0 0.0 --- 0.00 29.916
05/15/2003 3:30 a 41.6 41.6 41.6 41.9 41.4 91 39.2 0.0 0.0 --- 0.00 29.926
05/15/2003 4:00 a 41.1 41.1 41.1 41.4 40.8 91 38.7 0.0 0.0 --- 0.00 29.930
05/15/2003 4:30 a 40.9 40.9 40.9 41.0 40.7 92 38.8 0.0 0.0 --- 0.00 29.936
05/15/2003 5:00 a 40.4 40.4 40.4 40.8 40.3 92 38.3 0.0 0.0 --- 0.00 29.943
05/15/2003 5:30 a 40.0 40.0 40.0 40.3 39.8 92 37.9 0.0 0.0 --- 0.00 29.950
05/15/2003 6:00 a 40.0 40.0 40.0 40.1 39.8 92 37.9 0.0 0.0 --- 0.00 29.954
05/15/2003 6:30 a 40.6 40.6 40.6 41.3 40.1 93 38.7 0.0 0.0 --- 0.00 29.966
05/15/2003 7:00 a 42.4 42.4 42.4 44.0 41.4 93 40.5 0.0 0.0 --- 0.00 29.966
05/15/2003 7:30 a 51.0 51.0 51.0 55.4 44.0 77 44.1 0.0 0.0 --- 0.00 29.981
05/15/2003 8:00 a 52.7 52.7 52.7 53.8 52.1 72 43.9 0.0 0.0 --- 0.00 29.992
05/15/2003 8:30 a 55.8 55.8 55.8 57.9 53.9 66 44.6 0.0 0.0 --- 0.00 29.989
05/15/2003 9:00 a 61.2 61.2 61.2 65.5 57.9 54 44.4 0.0 2.0 SSE 0.00 29.992
05/15/2003 9:30 a 63.8 63.8 63.8 65.0 63.2 49 44.3 0.0 2.0 E 0.00 29.994
05/15/2003 10:00 a 64.8 64.8 64.8 65.4 64.6 50 45.7 0.0 2.0 ENE 0.00 29.996
05/15/2003 10:30 a 66.0 66.0 66.0 68.0 64.9 47 45.2 0.0 3.0 N 0.00 29.993
05/15/2003 11:00 a 66.0 68.1 68.1 68.9 67.5 44 45.4 0.0 3.0 NE 0.00 30.002
05/15/2003 11:30 a 66.0 68.2 68.2 68.7 67.8 42 44.3 0.0 5.0 N 0.00 29.995
05/15/2003 12:00 p 67.0 68.9 68.9 69.2 68.2 41 44.3 0.0 3.0 NNE 0.00 29.990
05/15/2003 12:30 p 67.9 67.9 67.9 68.7 67.6 47 46.9 1.0 4.0 NNE 0.00 29.983
05/15/2003 1:00 p 66.0 68.4 68.4 69.3 67.4 48 48.0 1.0 4.0 N 0.00 29.992
05/15/2003 1:30 p 66.1 66.1 66.1 67.6 64.7 49 46.4 1.0 3.0 N 0.00 29.998
05/15/2003 2:00 p 63.8 63.8 63.8 64.7 63.3 45 42.1 1.0 3.0 NNE 0.00 30.001
05/15/2003 2:30 p 63.5 63.5 63.5 63.7 63.4 47 42.9 0.0 3.0 N 0.00 30.005
05/15/2003 3:00 p 63.3 63.3 63.3 63.8 62.3 54 46.4 0.0 2.0 N 0.00 30.013
05/15/2003 3:30 p 60.3 60.3 60.3 62.3 58.2 78 53.4 0.0 3.0 N 0.00 30.011
05/15/2003 4:00 p 57.2 57.2 57.2 58.2 55.4 91 54.6 0.0 3.0 N 0.00 30.015
05/15/2003 4:30 p 54.7 54.7 54.7 55.4 54.5 94 53.0 0.0 0.0 --- 0.00 30.019
05/15/2003 5:00 p 55.0 55.0 55.0 55.5 54.6 94 53.3 0.0 2.0 N 0.00 30.028
05/15/2003 5:30 p 55.7 55.7 55.7 55.8 55.5 91 53.1 0.0 2.0 N 0.00 30.036
05/15/2003 6:00 p 55.7 55.7 55.7 55.7 55.6 92 53.4 0.0 3.0 N 0.00 30.030
05/15/2003 6:30 p 55.5 55.5 55.5 55.7 55.3 91 52.9 0.0 2.0 N 0.00 30.027
05/15/2003 7:00 p 55.4 55.4 55.4 55.5 55.3 90 52.5 0.0 3.0 N 0.00 30.033
05/15/2003 7:30 p 55.1 55.1 55.1 55.5 54.6 90 52.2 0.0 2.0 NNE 0.00 30.043
05/15/2003 8:00 p 54.5 54.5 54.5 54.6 54.2 89 51.3 0.0 2.0 NE 0.00 30.045
05/15/2003 8:30 p 53.9 53.9 53.9 54.2 53.7 90 51.0 0.0 3.0 NNE 0.00 30.061
05/15/2003 9:00 p 53.8 53.8 53.8 54.0 53.5 91 51.2 0.0 3.0 NNE 0.00 30.061
05/15/2003 9:30 p 53.4 53.4 53.4 53.5 53.3 91 50.8 0.0 2.0 NNE 0.00 30.072
05/15/2003 10:00 p 53.9 53.9 53.9 54.1 53.5 89 50.7 0.0 2.0 NNE 0.00 30.078
05/15/2003 10:30 p 54.2 54.2 54.2 54.2 54.1 89 51.0 0.0 5.0 NNE 0.00 30.076
05/15/2003 11:00 p 54.3 54.3 54.3 54.4 54.2 89 51.1 1.0 3.0 N 0.00 30.075
05/15/2003 11:30 p 54.3 54.3 54.3 54.4 54.1 89 51.1 1.0 4.0 N 0.00 30.079
05/16/2003 12:00 a 54.0 54.0 54.0 54.2 53.9 91 51.4 0.0 3.0 N 0.00 30.084
05/16/2003 12:30 a 54.1 54.1 54.1 54.2 54.0 90 51.2 0.0 3.0 NNE 0.00 30.080
05/16/2003 1:00 a 54.3 54.3 54.3 54.5 54.2 89 51.1 0.0 3.0 N 0.00 30.085
05/16/2003 1:30 a 54.6 54.6 54.6 54.6 54.5 87 50.8 1.0 4.0 N 0.00 30.085
05/16/2003 2:00 a 54.7 54.7 54.7 54.8 54.6 87 50.9 1.0 4.0 N 0.00 30.087
05/16/2003 2:30 a 54.5 54.5 54.5 54.7 54.4 86 50.4 1.0 4.0 N 0.00 30.085
05/16/2003 3:00 a 54.6 54.6 54.6 54.7 54.5 83 49.5 1.0 3.0 N 0.00 30.083
05/16/2003 3:30 a 54.6 54.6 54.6 54.7 54.5 82 49.2 1.0 4.0 N 0.00 30.085
05/16/2003 4:00 a 54.8 54.8 54.8 54.9 54.6 81 49.1 0.0 3.0 N 0.00 30.089
05/16/2003 4:30 a 54.6 54.6 54.6 54.7 54.4 78 47.9 0.0 3.0 N 0.00 30.086
05/16/2003 5:00 a 54.2 54.2 54.2 54.4 54.0 78 47.5 0.0 4.0 N 0.00 30.088
05/16/2003 5:30 a 53.8 53.8 53.8 54.0 53.7 77 46.8 0.0 3.0 NNE 0.00 30.093
05/16/2003 6:00 a 54.1 54.1 54.1 54.3 53.7 73 45.6 1.0 5.0 N 0.00 30.101
05/16/2003 6:30 a 54.3 54.3 54.3 54.3 54.2 71 45.1 0.0 5.0 N 0.00 30.110
05/16/2003 7:00 a 54.2 54.2 54.2 54.3 54.2 69 44.3 1.0 5.0 N 0.00 30.129
05/16/2003 7:30 a 54.2 54.2 54.2 54.2 54.1 69 44.3 1.0 4.0 N 0.00 30.139
05/16/2003 8:00 a 54.2 54.2 54.2 54.3 54.1 68 43.9 1.0 6.0 N 0.00 30.144
05/16/2003 8:30 a 54.5 54.5 54.5 54.7 54.2 68 44.2 1.0 8.0 N 0.00 30.139
05/16/2003 9:00 a 54.9 54.9 54.9 56.1 54.7 64 43.0 2.0 6.0 N 0.00 30.142
05/16/2003 9:30 a 57.3 57.3 57.3 58.0 56.1 62 44.4 2.0 6.0 N 0.00 30.143
05/16/2003 10:00 a 58.2 58.2 58.2 58.9 57.4 64 46.1 1.0 5.0 N 0.00 30.150
05/16/2003 10:30 a 58.9 58.9 58.9 59.4 58.7 61 45.5 1.0 5.0 N 0.00 30.156
05/16/2003 11:00 a 58.4 58.4 58.4 59.5 57.8 57 43.2 1.0 6.0 N 0.00 30.167
05/16/2003 11:30 a 59.5 59.5 59.5 60.4 58.3 54 42.9 2.0 7.0 N 0.00 30.166
05/16/2003 12:00 p 60.2 60.2 60.2 60.8 59.8 50 41.5 3.0 8.0 N 0.00 30.156
05/16/2003 12:30 p 61.1 61.1 61.1 62.0 60.6 47 40.7 2.0 7.0 N 0.00 30.161
05/16/2003 1:00 p 61.0 61.0 61.0 61.5 60.8 51 42.8 2.0 6.0 N 0.00 30.159
05/16/2003 1:30 p 61.5 61.5 61.5 62.2 60.9 49 42.2 2.0 6.0 N 0.00 30.155
05/16/2003 2:00 p 61.0 61.0 61.0 62.4 59.6 55 44.7 2.0 6.0 N 0.00 30.159
05/16/2003 2:30 p 58.6 58.6 58.6 59.6 57.8 59 44.3 2.0 7.0 N 0.00 30.157
05/16/2003 3:00 p 58.5 58.5 58.5 58.9 57.9 57 43.3 2.0 5.0 N 0.00 30.151
05/16/2003 3:30 p 58.9 58.9 58.9 59.1 58.8 55 42.8 2.0 6.0 N 0.00 30.148
05/16/2003 4:00 p 59.3 59.3 59.3 59.5 58.9 55 43.2 2.0 6.0 N 0.00 30.151
05/16/2003 4:30 p 58.5 58.5 58.5 59.1 58.2 59 44.2 1.0 4.0 N 0.00 30.156
05/16/2003 5:00 p 58.3 58.3 58.3 58.5 57.9 59 44.1 1.0 6.0 N 0.00 30.156
05/16/2003 5:30 p 56.9 56.9 56.9 57.9 56.0 66 45.7 1.0 4.0 N 0.00 30.162
05/16/2003 6:00 p 54.9 54.9 54.9 56.0 53.9 71 45.7 2.0 5.0 N 0.00 30.176
05/16/2003 6:30 p 53.5 53.5 53.5 53.9 53.2 75 45.8 1.0 4.0 N 0.00 30.176
05/16/2003 7:00 p 52.9 52.9 52.9 53.2 52.5 80 46.9 0.0 3.0 N 0.00 30.181
05/16/2003 7:30 p 51.8 51.8 51.8 52.5 50.9 87 48.1 0.0 3.0 N 0.00 30.190
05/16/2003 8:00 p 50.6 50.6 50.6 50.9 50.3 89 47.5 1.0 3.0 N 0.00 30.196
05/16/2003 8:30 p 50.0 50.0 50.0 50.4 49.6 92 47.8 1.0 3.0 N 0.00 30.195
05/16/2003 9:00 p 49.4 49.4 49.4 49.6 49.4 94 47.7 0.0 2.0 N 0.00 30.199
05/16/2003 9:30 p 49.4 49.4 49.4 49.4 49.2 94 47.7 0.0 0.0 --- 0.00 30.204
05/16/2003 10:00 p 49.1 49.1 49.1 49.2 48.8 95 47.7 0.0 0.0 --- 0.01 30.205
05/16/2003 10:30 p 48.5 48.5 48.5 48.8 48.2 95 47.1 0.0 0.0 --- 0.01 30.204
05/16/2003 11:00 p 48.0 48.0 48.0 48.3 47.8 95 46.6 0.0 0.0 --- 0.00 30.205
05/16/2003 11:30 p 47.9 47.9 47.9 47.9 47.8 95 46.5 0.0 0.0 --- 0.00 30.207
05/17/2003 12:00 a 47.9 47.9 47.9 48.0 47.8 95 46.5 0.0 0.0 --- 0.00 30.207
05/17/2003 12:30 a 47.9 47.9 47.9 47.9 47.8 95 46.5 0.0 0.0 --- 0.00 30.205
05/17/2003 1:00 a 47.6 47.6 47.6 47.8 47.5 95 46.2 0.0 4.0 N 0.00 30.201
05/17/2003 1:30 a 47.3 47.3 47.3 47.5 47.1 94 45.7 0.0 1.0 N 0.00 30.200
05/17/2003 2:00 a 47.2 47.2 47.2 47.2 47.1 94 45.6 0.0 2.0 N 0.00 30.206
05/17/2003 2:30 a 47.1 47.1 47.1 47.2 46.9 95 45.7 0.0 0.0 --- 0.00 30.204
05/17/2003 3:00 a 46.6 46.6 46.6 46.9 46.3 95 45.2 0.0 1.0 N 0.00 30.207
05/17/2003 3:30 a 45.8 45.8 45.8 46.3 45.6 95 44.5 0.0 2.0 N 0.00 30.207
05/17/2003 4:00 a 45.4 45.4 45.4 45.6 45.4 95 44.1 0.0 1.0 N 0.00 30.202
05/17/2003 4:30 a 45.5 45.5 45.5 45.6 45.4 95 44.2 0.0 2.0 N 0.00 30.198
05/17/2003 5:00 a 45.5 45.5 45.5 45.6 45.5 94 43.9 0.0 2.0 NNW 0.00 30.196
05/17/2003 5:30 a 45.6 45.6 45.6 45.7 45.5 94 44.0 0.0 0.0 --- 0.00 30.205
05/17/2003 6:00 a 45.6 45.6 45.6 45.9 45.5 94 44.0 0.0 2.0 NNW 0.00 30.212
05/17/2003 6:30 a 46.3 46.3 46.3 46.6 45.9 94 44.7 0.0 2.0 NNW 0.00 30.229
05/17/2003 7:00 a 46.6 46.6 46.6 46.6 46.5 93 44.7 0.0 4.0 NNW 0.00 30.244
05/17/2003 7:30 a 46.8 46.8 46.8 47.0 46.6 93 44.9 0.0 2.0 NNW 0.00 30.248
05/17/2003 8:00 a 46.9 46.9 46.9 47.0 46.8 92 44.7 0.0 1.0 N 0.00 30.258
05/17/2003 8:30 a 47.1 47.1 47.1 47.5 46.9 92 44.9 0.0 1.0 --- 0.00 30.262
05/17/2003 9:00 a 47.9 47.9 47.9 48.4 47.5 92 45.7 0.0 2.0 N 0.00 30.264
05/17/2003 9:30 a 49.0 49.0 49.0 49.3 48.4 91 46.5 0.0 3.0 SSE 0.00 30.262
05/17/2003 10:00 a 49.4 49.4 49.4 50.0 48.9 91 46.9 0.0 3.0 N 0.00 30.257
05/17/2003 10:30 a 50.5 50.5 50.5 50.7 50.0 89 47.4 0.0 3.0 NE 0.00 30.262
05/17/2003 11:00 a 51.1 51.1 51.1 51.5 50.4 87 47.4 0.0 3.0 N 0.00 30.263
05/17/2003 11:30 a 52.6 52.6 52.6 53.7 51.5 85 48.2 0.0 2.0 N 0.00 30.256
05/17/2003 12:00 p 54.5 54.5 54.5 55.1 53.6 80 48.5 0.0 4.0 NNE 0.00 30.250
05/17/2003 12:30 p 55.8 55.8 55.8 57.3 54.3 74 47.6 0.0 3.0 NNE 0.00 30.238
05/17/2003 1:00 p 60.5 60.5 60.5 65.6 57.3 55 44.3 0.0 4.0 N 0.00 30.229
05/17/2003 1:30 p 67.3 67.3 67.3 69.6 64.4 48 47.0 0.0 3.0 N 0.00 30.222
05/17/2003 2:00 p 66.0 68.0 68.0 70.0 65.4 48 47.6 0.0 4.0 N 0.00 30.218
05/17/2003 2:30 p 66.6 68.8 68.8 70.7 65.5 38 42.2 0.0 3.0 N 0.00 30.209
05/17/2003 3:00 p 67.6 70.2 70.2 71.0 69.4 38 43.4 0.0 3.0 NNE 0.00 30.202
05/17/2003 3:30 p 64.6 64.6 64.6 70.4 61.1 54 47.6 1.0 4.0 N 0.00 30.195
05/17/2003 4:00 p 61.5 61.5 61.5 62.2 60.8 53 44.2 0.0 3.0 N 0.00 30.194
05/17/2003 4:30 p 61.6 61.6 61.6 62.0 61.1 54 44.8 0.0 4.0 N 0.00 30.193
05/17/2003 5:00 p 61.1 61.1 61.1 62.0 60.8 55 44.8 1.0 4.0 NNE 0.00 30.190
05/17/2003 5:30 p 60.2 60.2 60.2 61.0 58.8 57 44.9 1.0 4.0 N 0.00 30.196
05/17/2003 6:00 p 58.0 58.0 58.0 58.8 57.3 61 44.6 1.0 4.0 N 0.00 30.193
05/17/2003 6:30 p 56.7 56.7 56.7 57.3 56.2 63 44.3 1.0 3.0 N 0.00 30.192
05/17/2003 7:00 p 55.5 55.5 55.5 56.2 54.6 66 44.3 0.0 3.0 N 0.00 30.204
05/17/2003 7:30 p 53.6 53.6 53.6 54.6 52.6 71 44.4 0.0 3.0 N 0.00 30.209
05/17/2003 8:00 p 51.7 51.7 51.7 52.6 50.8 75 44.0 0.0 1.0 N 0.00 30.215
05/17/2003 8:30 p 50.1 50.1 50.1 50.8 49.4 79 43.9 0.0 1.0 --- 0.00 30.216
05/17/2003 9:00 p 48.9 48.9 48.9 49.4 48.4 81 43.3 0.0 0.0 --- 0.00 30.217
05/17/2003 9:30 p 47.7 47.7 47.7 48.4 47.0 85 43.4 0.0 0.0 --- 0.00 30.229
05/17/2003 10:00 p 46.4 46.4 46.4 47.0 45.9 87 42.7 0.0 0.0 --- 0.00 30.229
05/17/2003 10:30 p 45.6 45.6 45.6 45.9 45.2 88 42.3 0.0 0.0 --- 0.00 30.229
05/17/2003 11:00 p 44.6 44.6 44.6 45.2 44.1 89 41.6 0.0 0.0 --- 0.00 30.222
05/17/2003 11:30 p 43.9 43.9 43.9 44.1 43.5 90 41.2 0.0 0.0 --- 0.00 30.222
05/18/2003 12:00 a 43.1 43.1 43.1 43.5 42.8 91 40.7 0.0 0.0 --- 0.00 30.222
05/18/2003 12:30 a 42.6 42.6 42.6 42.8 42.3 91 40.2 0.0 0.0 --- 0.00 30.214
05/18/2003 1:00 a 42.0 42.0 42.0 42.3 41.7 92 39.8 0.0 0.0 --- 0.00 30.209
05/18/2003 1:30 a 41.4 41.4 41.4 41.7 41.1 92 39.3 0.0 0.0 --- 0.00 30.205
05/18/2003 2:00 a 40.6 40.6 40.6 41.1 40.1 92 38.5 0.0 0.0 --- 0.00 30.199
05/18/2003 2:30 a 40.0 40.0 40.0 40.1 39.6 92 37.9 0.0 0.0 --- 0.00 30.197
05/18/2003 3:00 a 39.4 39.4 39.4 39.6 39.2 92 37.3 0.0 0.0 --- 0.00 30.193
05/18/2003 3:30 a 38.9 38.9 38.9 39.2 38.7 92 36.8 0.0 0.0 --- 0.00 30.191
05/18/2003 4:00 a 38.3 38.3 38.3 38.7 38.0 92 36.2 0.0 0.0 --- 0.00 30.191
05/18/2003 4:30 a 37.8 37.8 37.8 38.0 37.6 92 35.7 0.0 0.0 --- 0.00 30.183
05/18/2003 5:00 a 37.5 37.5 37.5 37.6 37.2 92 35.4 0.0 0.0 --- 0.00 30.181
05/18/2003 5:30 a 37.1 37.1 37.1 37.3 37.1 92 35.0 0.0 0.0 --- 0.00 30.184
05/18/2003 6:00 a 37.0 37.0 37.0 37.3 36.7 92 34.9 0.0 0.0 --- 0.00 30.187
05/18/2003 6:30 a 37.7 37.7 37.7 38.7 37.0 93 35.9 0.0 0.0 --- 0.00 30.185
05/18/2003 7:00 a 39.8 39.8 39.8 42.0 38.7 93 37.9 0.0 0.0 --- 0.00 30.190
05/18/2003 7:30 a 52.9 52.9 52.9 57.9 42.1 73 44.5 0.0 0.0 --- 0.00 30.195
05/18/2003 8:00 a 51.8 51.8 51.8 53.6 50.9 74 43.8 0.0 2.0 ENE 0.00 30.198
05/18/2003 8:30 a 53.4 53.4 53.4 53.9 52.7 60 39.9 0.0 3.0 N 0.00 30.203
05/18/2003 9:00 a 55.3 55.3 55.3 58.2 53.4 45 34.3 0.0 3.0 N 0.00 30.213
05/18/2003 9:30 a 59.6 59.6 59.6 61.6 58.3 35 31.9 0.0 3.0 NNE 0.00 30.220
05/18/2003 10:00 a 58.9 58.9 58.9 61.5 57.4 33 29.9 0.0 3.0 N 0.00 30.206
05/18/2003 10:30 a 57.4 57.4 57.4 58.0 57.2 33 28.6 0.0 1.0 ESE 0.00 30.207
05/18/2003 11:00 a 59.5 59.5 59.5 61.2 57.5 27 25.5 0.0 2.0 ENE 0.00 30.224
05/18/2003 11:30 a 62.1 62.1 62.1 63.1 60.9 27 27.7 0.0 3.0 SE 0.00 30.218
05/18/2003 12:00 p 61.5 61.5 61.5 62.7 61.0 30 29.8 0.0 1.0 SE 0.00 30.190
05/18/2003 12:30 p 62.2 62.2 62.2 64.5 60.8 26 26.9 0.0 2.0 SE 0.00 30.188
05/18/2003 1:00 p 62.6 62.6 62.6 63.9 61.7 28 29.1 0.0 1.0 --- 0.00 30.193
05/18/2003 1:30 p 62.1 62.1 62.1 62.8 61.0 31 31.1 0.0 1.0 SE 0.00 30.183
05/18/2003 2:00 p 61.1 61.1 61.1 61.6 60.4 35 33.3 0.0 2.0 ENE 0.00 30.177
05/18/2003 2:30 p 60.4 60.4 60.4 60.9 60.1 29 28.0 0.0 2.0 NNE 0.00 30.179
05/18/2003 3:00 p 60.7 60.7 60.7 63.7 59.9 27 26.5 0.0 2.0 NNE 0.00 30.184
05/18/2003 3:30 p 61.9 61.9 61.9 64.4 60.5 27 27.6 0.0 2.0 NNE 0.00 30.173
05/18/2003 4:00 p 60.8 60.8 60.8 62.1 59.7 27 26.6 0.0 3.0 NNE 0.00 30.167
05/18/2003 4:30 p 60.8 60.8 60.8 61.5 59.8 27 26.6 1.0 3.0 NNE 0.00 30.164
05/18/2003 5:00 p 60.9 60.9 60.9 61.4 60.4 25 24.9 1.0 3.0 NNE 0.00 30.165
05/18/2003 5:30 p 60.5 60.5 60.5 61.2 59.4 31 29.7 1.0 3.0 N 0.00 30.169
05/18/2003 6:00 p 58.7 58.7 58.7 59.4 58.0 35 31.1 0.0 3.0 N 0.00 30.166
05/18/2003 6:30 p 57.4 57.4 57.4 58.0 57.0 38 32.0 0.0 3.0 N 0.00 30.170
05/18/2003 7:00 p 56.4 56.4 56.4 57.0 55.6 47 36.4 0.0 2.0 NNE 0.00 30.167
05/18/2003 7:30 p 54.9 54.9 54.9 55.7 54.2 57 40.0 0.0 0.0 --- 0.00 30.168
05/18/2003 8:00 p 53.8 53.8 53.8 54.3 53.0 64 41.9 0.0 1.0 NNE 0.00 30.165
05/18/2003 8:30 p 51.9 51.9 51.9 53.0 51.2 73 43.5 0.0 0.0 --- 0.00 30.170
05/18/2003 9:00 p 50.5 50.5 50.5 51.3 49.7 77 43.6 0.0 0.0 --- 0.00 30.174
05/18/2003 9:30 p 49.1 49.1 49.1 49.7 48.4 80 43.2 0.0 0.0 --- 0.00 30.187
05/18/2003 10:00 p 47.8 47.8 47.8 48.4 47.1 84 43.2 0.0 0.0 --- 0.00 30.193
05/18/2003 10:30 p 46.4 46.4 46.4 47.1 45.8 86 42.4 0.0 0.0 --- 0.00 30.187
05/18/2003 11:00 p 45.2 45.2 45.2 45.8 44.6 87 41.6 0.0 0.0 --- 0.00 30.191
05/18/2003 11:30 p 43.9 43.9 43.9 44.6 43.1 88 40.6 0.0 0.0 --- 0.00 30.191
05/19/2003 12:00 a 42.6 42.6 42.6 43.1 42.3 90 39.9 0.0 0.0 --- 0.00 30.193
05/19/2003 12:30 a 42.1 42.1 42.1 42.5 41.6 89 39.1 0.0 0.0 --- 0.00 30.187
05/19/2003 1:00 a 41.2 41.2 41.2 41.6 41.0 90 38.5 0.0 0.0 --- 0.00 30.184
05/19/2003 1:30 a 40.5 40.5 40.5 41.0 40.2 90 37.8 0.0 0.0 --- 0.00 30.180
05/19/2003 2:00 a 39.9 39.9 39.9 40.3 39.7 91 37.5 0.0 0.0 --- 0.00 30.181
05/19/2003 2:30 a 39.6 39.6 39.6 39.8 39.5 91 37.2 0.0 0.0 --- 0.00 30.166
05/19/2003 3:00 a 39.3 39.3 39.3 39.5 38.9 90 36.6 0.0 0.0 --- 0.00 30.170
05/19/2003 3:30 a 38.6 38.6 38.6 38.9 38.5 91 36.2 0.0 0.0 --- 0.00 30.171
05/19/2003 4:00 a 38.2 38.2 38.2 38.5 38.0 91 35.8 0.0 0.0 --- 0.00 30.170
05/19/2003 4:30 a 38.1 38.1 38.1 38.2 37.8 91 35.7 0.0 1.0 --- 0.00 30.165
05/19/2003 5:00 a 37.6 37.6 37.6 37.9 37.2 91 35.2 0.0 0.0 --- 0.00 30.179
05/19/2003 5:30 a 36.9 36.9 36.9 37.2 36.7 91 34.5 0.0 0.0 --- 0.00 30.186
05/19/2003 6:00 a 36.8 36.8 36.8 36.9 36.7 91 34.4 0.0 0.0 --- 0.00 30.180
05/19/2003 6:30 a 37.2 37.2 37.2 37.8 36.8 92 35.1 0.0 0.0 --- 0.00 30.183
05/19/2003 7:00 a 39.4 39.4 39.4 41.8 37.8 92 37.3 0.0 0.0 --- 0.00 30.193
05/19/2003 7:30 a 51.9 51.9 51.9 56.4 41.9 71 42.8 0.0 0.0 --- 0.00 30.201
05/19/2003 8:00 a 51.3 51.3 51.3 53.6 50.6 78 44.7 0.0 0.0 --- 0.00 30.211
05/19/2003 8:30 a 53.6 53.6 53.6 55.7 51.5 62 40.9 0.0 2.0 NE 0.00 30.219
05/19/2003 9:00 a 59.0 59.0 59.0 62.8 55.7 51 40.9 0.0 0.0 --- 0.00 30.221
05/19/2003 9:30 a 63.3 63.3 63.3 64.9 62.4 45 41.6 0.0 1.0 NE 0.00 30.222
05/19/2003 10:00 a 65.2 65.2 65.2 65.8 64.6 42 41.6 0.0 4.0 NE 0.00 30.214
05/19/2003 10:30 a 66.7 66.7 66.7 69.0 65.8 38 40.3 0.0 2.0 ESE 0.00 30.205
05/19/2003 11:00 a 67.4 70.5 70.5 72.2 69.0 32 39.3 0.0 3.0 ESE 0.00 30.207
05/19/2003 11:30 a 65.0 69.2 69.2 69.6 68.9 30 36.5 0.0 3.0 NNE 0.00 30.202
05/19/2003 12:00 p 67.0 70.6 70.6 71.6 69.6 28 35.9 0.0 3.0 SE 0.00 30.198
05/19/2003 12:30 p 79.0 80.6 80.6 84.6 71.6 20 35.9 0.0 3.0 N 0.00 30.198
05/19/2003 1:00 p 81.1 83.5 83.5 84.7 82.4 21 39.5 1.0 5.0 N 0.00 30.194
05/19/2003 1:30 p 80.6 82.9 82.9 83.7 81.9 18 35.1 1.0 5.0 N 0.00 30.195
05/19/2003 2:00 p 80.8 83.6 83.6 85.1 81.6 18 35.7 1.0 5.0 N 0.00 30.192
05/19/2003 2:30 p 80.6 82.8 82.8 83.8 81.6 18 35.0 1.0 4.0 N 0.00 30.186
05/19/2003 3:00 p 79.4 81.9 81.9 83.9 80.6 17 32.9 1.0 4.0 N 0.00 30.176
05/19/2003 3:30 p 76.0 77.8 77.8 81.1 74.9 21 34.8 1.0 4.0 N 0.00 30.167
05/19/2003 4:00 p 71.4 74.8 74.8 75.1 74.5 22 33.4 1.0 3.0 N 0.00 30.155
05/19/2003 4:30 p 71.8 74.8 74.8 75.0 74.5 24 35.6 0.0 2.0 N 0.00 30.160
05/19/2003 5:00 p 70.8 74.2 74.2 74.6 73.8 24 35.1 1.0 3.0 N 0.00 30.158
05/19/2003 5:30 p 70.8 74.0 74.0 74.8 72.6 24 35.0 0.0 3.0 N 0.00 30.159
05/19/2003 6:00 p 68.7 71.8 71.8 72.6 71.1 27 36.1 0.0 2.0 N 0.00 30.161
05/19/2003 6:30 p 66.0 70.2 70.2 71.1 69.4 27 34.7 0.0 2.0 N 0.00 30.157
05/19/2003 7:00 p 65.0 68.7 68.7 69.4 68.0 27 33.4 0.0 1.0 N 0.00 30.163
05/19/2003 7:30 p 66.8 66.8 66.8 68.1 64.9 33 36.8 0.0 0.0 --- 0.00 30.165
05/19/2003 8:00 p 63.3 63.3 63.3 64.9 61.5 40 38.6 0.0 0.0 --- 0.00 30.170
05/19/2003 8:30 p 59.7 59.7 59.7 61.5 58.3 48 40.0 0.0 0.0 --- 0.00 30.170
05/19/2003 9:00 p 56.9 56.9 56.9 58.3 55.6 57 41.8 0.0 0.0 --- 0.00 30.178
05/19/2003 9:30 p 54.5 54.5 54.5 55.6 53.5 62 41.8 0.0 0.0 --- 0.00 30.176
05/19/2003 10:00 p 52.7 52.7 52.7 53.5 51.9 67 42.1 0.0 0.0 --- 0.00 30.178
05/19/2003 10:30 p 51.1 51.1 51.1 51.9 50.3 72 42.4 0.0 0.0 --- 0.00 30.167
05/19/2003 11:00 p 49.6 49.6 49.6 50.3 48.9 76 42.4 0.0 0.0 --- 0.00 30.164
05/19/2003 11:30 p 48.4 48.4 48.4 49.0 48.0 80 42.5 0.0 0.0 --- 0.00 30.160
05/20/2003 12:00 a 47.6 47.6 47.6 48.0 47.2 81 42.1 0.0 0.0 --- 0.00 30.161
05/20/2003 12:30 a 46.4 46.4 46.4 47.1 46.0 85 42.1 0.0 0.0 --- 0.00 30.161
05/20/2003 1:00 a 45.7 45.7 45.7 46.1 45.3 86 41.8 0.0 0.0 --- 0.00 30.154
05/20/2003 1:30 a 44.8 44.8 44.8 45.3 44.3 88 41.5 0.0 0.0 --- 0.00 30.149
05/20/2003 2:00 a 44.2 44.2 44.2 44.3 43.9 87 40.6 0.0 0.0 --- 0.00 30.142
05/20/2003 2:30 a 43.6 43.6 43.6 43.9 43.2 88 40.3 0.0 0.0 --- 0.00 30.140
05/20/2003 3:00 a 42.8 42.8 42.8 43.2 42.5 89 39.8 0.0 0.0 --- 0.00 30.136
05/20/2003 3:30 a 42.3 42.3 42.3 42.5 42.1 90 39.6 0.0 0.0 --- 0.00 30.136
05/20/2003 4:00 a 41.8 41.8 41.8 42.3 41.3 90 39.1 0.0 0.0